Observation data for Umbarger on 12/13/2018      Previous  Date       Current Mesonet Observations  Soil Data  Daily Summary Page  Observations in Plain Language
KUM1 130600Z 26014KT 07/M04 A2963 RMK A01 T00671035  RH  048%=      5-min Rain = 0
KUM1 130601Z 26014KT 07/M04 A2963 RMK A01 T00661035  RH  049%=      5-min Rain = 0
KUM1 130602Z 26014KT 07/M04 A2964 RMK A01 T00651035  RH  049%=      5-min Rain = 0
KUM1 130603Z 26015KT 07/M04 A2964 RMK A01 T00651035  RH  049%=      5-min Rain = 0
KUM1 130604Z 26014KT 07/M04 A2964 RMK A01 T00651035  RH  049%=      5-min Rain = 0
KUM1 130605Z 26014KT 07/M03 A2964 RMK A01 T00661034  RH  049%=      5-min Rain = 0
KUM1 130606Z 26014KT 07/M04 A2964 RMK A01 T00651035  RH  049%=      5-min Rain = 0
KUM1 130607Z 26013KT 06/M04 A2964 RMK A01 T00641035  RH  049%=      5-min Rain = 0
KUM1 130608Z 25013KT 06/M04 A2964 RMK A01 T00621035  RH  050%=      5-min Rain = 0
KUM1 130609Z 25014KT 06/M04 A2964 RMK A01 T00611035  RH  050%=      5-min Rain = 0
KUM1 130610Z 26013KT 06/M04 A2964 RMK A01 T00601035  RH  051%=      5-min Rain = 0
KUM1 130611Z 26013KT 06/M03 A2964 RMK A01 T00601034  RH  051%=      5-min Rain = 0
KUM1 130612Z 26012KT 06/M04 A2964 RMK A01 T00591035  RH  051%=      5-min Rain = 0
KUM1 130613Z 26013KT 06/M04 A2964 RMK A01 T00581035  RH  051%=      5-min Rain = 0
KUM1 130614Z 26013KT 06/M03 A2964 RMK A01 T00581034  RH  052%=      5-min Rain = 0
KUM1 130615Z 26014KT 06/M03 A2964 RMK A01 T00571034  RH  052%=      5-min Rain = 0
KUM1 130616Z 26014KT 06/M03 A2964 RMK A01 T00571034  RH  052%=      5-min Rain = 0
KUM1 130617Z 26014KT 06/M04 A2964 RMK A01 T00571035  RH  052%=      5-min Rain = 0
KUM1 130618Z 26014KT 06/M04 A2964 RMK A01 T00561035  RH  052%=      5-min Rain = 0
KUM1 130619Z 26014KT 06/M04 A2964 RMK A01 T00551035  RH  052%=      5-min Rain = 0
KUM1 130620Z 26014KT 06/M04 A2964 RMK A01 T00551035  RH  052%=      5-min Rain = 0
KUM1 130621Z 25014KT 06/M04 A2964 RMK A01 T00551036  RH  052%=      5-min Rain = 0
KUM1 130622Z 25013KT 05/M04 A2964 RMK A01 T00541036  RH  052%=      5-min Rain = 0
KUM1 130623Z 25013KT 05/M04 A2964 RMK A01 T00531036  RH  053%=      5-min Rain = 0
KUM1 130624Z 25013KT 05/M04 A2964 RMK A01 T00521036  RH  053%=      5-min Rain = 0
KUM1 130625Z 25013KT 05/M04 A2964 RMK A01 T00511035  RH  054%=      5-min Rain = 0
KUM1 130626Z 25014KT 05/M04 A2964 RMK A01 T00501035  RH  054%=      5-min Rain = 0
KUM1 130627Z 25013KT 05/M04 A2964 RMK A01 T00501035  RH  054%=      5-min Rain = 0
KUM1 130628Z 25013KT 05/M04 A2964 RMK A01 T00491035  RH  055%=      5-min Rain = 0
KUM1 130629Z 25013KT 05/M04 A2964 RMK A01 T00481035  RH  055%=      5-min Rain = 0
KUM1 130630Z 25014KT 05/M04 A2964 RMK A01 T00481035  RH  055%=      5-min Rain = 0
KUM1 130631Z 25014KT 05/M03 A2964 RMK A01 T00481034  RH  055%=      5-min Rain = 0
KUM1 130632Z 25014KT 05/M04 A2964 RMK A01 T00481035  RH  055%=      5-min Rain = 0
KUM1 130633Z 26013KT 05/M04 A2964 RMK A01 T00481035  RH  055%=      5-min Rain = 0
KUM1 130634Z 26013KT 05/M04 A2964 RMK A01 T00491035  RH  055%=      5-min Rain = 0
KUM1 130635Z 26014KT 05/M04 A2964 RMK A01 T00491035  RH  055%=      5-min Rain = 0
KUM1 130636Z 26013KT 05/M04 A2964 RMK A01 T00491035  RH  054%=      5-min Rain = 0
KUM1 130637Z 26014KT 05/M04 A2964 RMK A01 T00491036  RH  054%=      5-min Rain = 0
KUM1 130638Z 27014KT 05/M04 A2964 RMK A01 T00511035  RH  054%=      5-min Rain = 0
KUM1 130639Z 27014KT 05/M04 A2964 RMK A01 T00541035  RH  053%=      5-min Rain = 0
KUM1 130640Z 27014KT 06/M04 A2964 RMK A01 T00561035  RH  052%=      5-min Rain = 0
KUM1 130641Z 27013KT 06/M04 A2964 RMK A01 T00581035  RH  051%=      5-min Rain = 0
KUM1 130642Z 27013KT 06/M04 A2964 RMK A01 T00591035  RH  051%=      5-min Rain = 0
KUM1 130643Z 27013KT 06/M04 A2964 RMK A01 T00591036  RH  051%=      5-min Rain = 0
KUM1 130644Z 27013KT 06/M04 A2964 RMK A01 T00591036  RH  051%=      5-min Rain = 0
KUM1 130645Z 27013KT 06/M04 A2964 RMK A01 T00581036  RH  051%=      5-min Rain = 0
KUM1 130646Z 27012KT 06/M04 A2964 RMK A01 T00581036  RH  051%=      5-min Rain = 0
KUM1 130647Z 27012KT 06/M04 A2964 RMK A01 T00571037  RH  051%=      5-min Rain = 0
KUM1 130648Z 27013KT 06/M04 A2964 RMK A01 T00561036  RH  051%=      5-min Rain = 0
KUM1 130649Z 27012KT 06/M04 A2964 RMK A01 T00551037  RH  052%=      5-min Rain = 0
KUM1 130650Z 27012KT 05/M04 A2964 RMK A01 T00541037  RH  052%=      5-min Rain = 0
KUM1 130651Z 27012KT 05/M04 A2964 RMK A01 T00531037  RH  052%=      5-min Rain = 0
KUM1 130652Z 27012KT 05/M04 A2964 RMK A01 T00531036  RH  053%=      5-min Rain = 0
KUM1 130653Z 27012KT 05/M04 A2964 RMK A01 T00521037  RH  053%=      5-min Rain = 0
KUM1 130654Z 27011KT 05/M04 A2964 RMK A01 T00521037  RH  053%=      5-min Rain = 0
KUM1 130655Z 27011KT 05/M04 A2964 RMK A01 T00521037  RH  053%=      5-min Rain = 0
KUM1 130656Z 27010KT 05/M04 A2964 RMK A01 T00511037  RH  053%=      5-min Rain = 0
KUM1 130657Z 26011KT 05/M04 A2964 RMK A01 T00511037  RH  053%=      5-min Rain = 0
KUM1 130658Z 27011KT 05/M04 A2964 RMK A01 T00501037  RH  053%=      5-min Rain = 0
KUM1 130659Z 26011KT 05/M04 A2964 RMK A01 T00501037  RH  053%=      5-min Rain = 0
KUM1 130700Z 26012KT 05/M04 A2964 RMK A01 T00501037  RH  053%=      5-min Rain = 0
KUM1 130701Z 26011KT 05/M04 A2964 RMK A01 T00491038  RH  053%=      5-min Rain = 0
KUM1 130702Z 26011KT 05/M04 A2964 RMK A01 T00481038  RH  054%=      5-min Rain = 0
KUM1 130703Z 26011KT 05/M04 A2964 RMK A01 T00471038  RH  054%=      5-min Rain = 0
KUM1 130704Z 26012KT 05/M04 A2964 RMK A01 T00461038  RH  054%=      5-min Rain = 0
KUM1 130705Z 26013KT 05/M04 A2964 RMK A01 T00451038  RH  055%=      5-min Rain = 0
KUM1 130706Z 26012KT 05/M04 A2964 RMK A01 T00451038  RH  055%=      5-min Rain = 0
KUM1 130707Z 26012KT 05/M04 A2964 RMK A01 T00471037  RH  054%=      5-min Rain = 0
KUM1 130708Z 26013KT 05/M04 A2964 RMK A01 T00471038  RH  054%=      5-min Rain = 0
KUM1 130709Z 27012KT 05/M04 A2964 RMK A01 T00471038  RH  054%=      5-min Rain = 0
KUM1 130710Z 27013KT 05/M04 A2964 RMK A01 T00491037  RH  054%=      5-min Rain = 0
KUM1 130711Z 27012KT 05/M04 A2964 RMK A01 T00501037  RH  053%=      5-min Rain = 0
KUM1 130712Z 27012KT 05/M04 A2964 RMK A01 T00511037  RH  053%=      5-min Rain = 0
KUM1 130713Z 27012KT 05/M04 A2964 RMK A01 T00521037  RH  053%=      5-min Rain = 0
KUM1 130714Z 26013KT 05/M04 A2964 RMK A01 T00521037  RH  052%=      5-min Rain = 0
KUM1 130715Z 26013KT 05/M04 A2964 RMK A01 T00541037  RH  052%=      5-min Rain = 0
KUM1 130716Z 27013KT 06/M04 A2964 RMK A01 T00551037  RH  052%=      5-min Rain = 0
KUM1 130717Z 27013KT 06/M04 A2964 RMK A01 T00551038  RH  051%=      5-min Rain = 0
KUM1 130718Z 27014KT 06/M04 A2964 RMK A01 T00561038  RH  051%=      5-min Rain = 0
KUM1 130719Z 27014KT 06/M04 A2964 RMK A01 T00561037  RH  051%=      5-min Rain = 0
KUM1 130720Z 27013KT 06/M04 A2964 RMK A01 T00571037  RH  051%=      5-min Rain = 0
KUM1 130721Z 27014KT 06/M04 A2964 RMK A01 T00571037  RH  051%=      5-min Rain = 0
KUM1 130722Z 26014KT 06/M04 A2964 RMK A01 T00571038  RH  051%=      5-min Rain = 0
KUM1 130723Z 27015KT 06/M04 A2964 RMK A01 T00571037  RH  051%=      5-min Rain = 0
KUM1 130724Z 27015KT 06/M04 A2964 RMK A01 T00581037  RH  050%=      5-min Rain = 0
KUM1 130725Z 27014KT 06/M04 A2964 RMK A01 T00591037  RH  050%=      5-min Rain = 0
KUM1 130726Z 27015KT 06/M04 A2964 RMK A01 T00591037  RH  050%=      5-min Rain = 0
KUM1 130727Z 27015KT 06/M04 A2964 RMK A01 T00581038  RH  050%=      5-min Rain = 0
KUM1 130728Z 27014KT 06/M04 A2964 RMK A01 T00581037  RH  050%=      5-min Rain = 0
KUM1 130729Z 27015KT 06/M04 A2964 RMK A01 T00581037  RH  050%=      5-min Rain = 0
KUM1 130730Z 27014KT 06/M04 A2964 RMK A01 T00591037  RH  050%=      5-min Rain = 0
KUM1 130731Z 27015KT 06/M04 A2964 RMK A01 T00591037  RH  050%=      5-min Rain = 0
KUM1 130732Z 27015KT 06/M04 A2964 RMK A01 T00601037  RH  050%=      5-min Rain = 0
KUM1 130733Z 27016KT 06/M04 A2964 RMK A01 T00611037  RH  049%=      5-min Rain = 0
KUM1 130734Z 27015KT 06/M04 A2964 RMK A01 T00621037  RH  049%=      5-min Rain = 0
KUM1 130735Z 27016KT 06/M04 A2964 RMK A01 T00631037  RH  049%=      5-min Rain = 0
KUM1 130736Z 28015KT 06/M04 A2964 RMK A01 T00641037  RH  048%=      5-min Rain = 0
KUM1 130737Z 28016KT 07/M04 A2964 RMK A01 T00651037  RH  048%=      5-min Rain = 0
KUM1 130738Z 28016KT 07/M04 A2964 RMK A01 T00651037  RH  048%=      5-min Rain = 0
KUM1 130739Z 28016KT 07/M04 A2964 RMK A01 T00671036  RH  048%=      5-min Rain = 0
KUM1 130740Z 28017KT 07/M04 A2965 RMK A01 T00681036  RH  047%=      5-min Rain = 0
KUM1 130741Z 28016KT 07/M04 A2965 RMK A01 T00681036  RH  047%=      5-min Rain = 0
KUM1 130742Z 29016KT 07/M04 A2965 RMK A01 T00691035  RH  048%=      5-min Rain = 0
KUM1 130743Z 29016KT 07/M04 A2966 RMK A01 T00691035  RH  048%=      5-min Rain = 0
KUM1 130744Z 30017KT 07/M03 A2966 RMK A01 T00691034  RH  048%=      5-min Rain = 0
KUM1 130745Z 30016KT 07/M03 A2966 RMK A01 T00691034  RH  048%=      5-min Rain = 0
KUM1 130746Z 30018KT 07/M04 A2967 RMK A01 T00691035  RH  047%=      5-min Rain = 0
KUM1 130747Z 31019KT 07/M04 A2967 RMK A01 T00711035  RH  047%=      5-min Rain = 0
KUM1 130748Z 31022KT 07/M04 A2967 RMK A01 T00731035  RH  046%=      5-min Rain = 0
KUM1 130749Z 31021KT 08/M04 A2967 RMK A01 T00751036  RH  045%=      5-min Rain = 0
KUM1 130750Z 31023G29KT 08/M04 A2967 RMK A01 T00751038  RH  045%=      5-min Rain = 0
KUM1 130751Z 31021KT 08/M04 A2967 RMK A01 T00781039  RH  043%=      5-min Rain = 0
KUM1 130752Z 31020KT 08/M04 A2967 RMK A01 T00801040  RH  043%=      5-min Rain = 0
KUM1 130753Z 31021KT 08/M04 A2967 RMK A01 T00801039  RH  043%=      5-min Rain = 0
KUM1 130754Z 31019KT 08/M04 A2967 RMK A01 T00801040  RH  043%=      5-min Rain = 0
KUM1 130755Z 31020KT 08/M04 A2967 RMK A01 T00801041  RH  042%=      5-min Rain = 0
KUM1 130756Z 31020KT 08/M04 A2968 RMK A01 T00801042  RH  042%=      5-min Rain = 0
KUM1 130757Z 32022KT 08/M05 A2968 RMK A01 T00811045  RH  041%=      5-min Rain = 0
KUM1 130758Z 32022KT 08/M05 A2968 RMK A01 T00821050  RH  039%=      5-min Rain = 0
KUM1 130759Z 32020KT 08/M05 A2968 RMK A01 T00831053  RH  038%=      5-min Rain = 0
KUM1 130800Z 32022KT 08/M06 A2968 RMK A01 T00831057  RH  037%=      5-min Rain = 0
KUM1 130801Z 32022KT 08/M06 A2968 RMK A01 T00831059  RH  036%=      5-min Rain = 0
KUM1 130802Z 32025KT 08/M06 A2968 RMK A01 T00831062  RH  035%=      5-min Rain = 0
KUM1 130803Z 32025KT 08/M07 A2968 RMK A01 T00841065  RH  034%=      5-min Rain = 0
KUM1 130804Z 32023KT 09/M07 A2969 RMK A01 T00851066  RH  034%=      5-min Rain = 0
KUM1 130805Z 32024KT 09/M07 A2969 RMK A01 T00851067  RH  034%=      5-min Rain = 0
KUM1 130806Z 33023KT 08/M07 A2969 RMK A01 T00841068  RH  033%=      5-min Rain = 0
KUM1 130807Z 33026KT 08/M07 A297 RMK A01 T00841071  RH  033%=      5-min Rain = 0
KUM1 130808Z 33027G34KT 08/M07 A297 RMK A01 T00841074  RH  032%=      5-min Rain = 0
KUM1 130809Z 34032G38KT 08/M08 A297 RMK A01 T00831077  RH  031%=      5-min Rain = 0
KUM1 130810Z 34030G35KT 08/M08 A297 RMK A01 T00841078  RH  031%=      5-min Rain = 0
KUM1 130811Z 34025KT 08/M08 A2971 RMK A01 T00821077  RH  031%=      5-min Rain = 0
KUM1 130812Z 35025KT 08/M08 A2971 RMK A01 T00801077  RH  032%=      5-min Rain = 0
KUM1 130813Z 35025KT 08/M08 A2971 RMK A01 T00791076  RH  032%=      5-min Rain = 0
KUM1 130814Z 35027KT 08/M08 A2971 RMK A01 T00761076  RH  033%=      5-min Rain = 0
KUM1 130815Z 35030KT 08/M08 A2971 RMK A01 T00751078  RH  033%=      5-min Rain = 0
KUM1 130816Z 34026KT 07/M08 A2971 RMK A01 T00741079  RH  033%=      5-min Rain = 0
KUM1 130817Z 34023G28KT 07/M08 A2971 RMK A01 T00721079  RH  033%=      5-min Rain = 0
KUM1 130818Z 35025KT 07/M08 A2971 RMK A01 T00711079  RH  034%=      5-min Rain = 0
KUM1 130819Z 35023KT 07/M08 A2971 RMK A01 T00701079  RH  034%=      5-min Rain = 0
KUM1 130820Z 34023G29KT 07/M08 A2971 RMK A01 T00691079  RH  034%=      5-min Rain = 0
KUM1 130821Z 34022KT 07/M08 A2971 RMK A01 T00681079  RH  034%=      5-min Rain = 0
KUM1 130822Z 34020KT 07/M08 A2971 RMK A01 T00681078  RH  034%=      5-min Rain = 0
KUM1 130823Z 34022KT 07/M08 A2972 RMK A01 T00671078  RH  035%=      5-min Rain = 0
KUM1 130824Z 34022KT 07/M08 A2972 RMK A01 T00671078  RH  035%=      5-min Rain = 0
KUM1 130825Z 34021KT 07/M08 A2972 RMK A01 T00661078  RH  035%=      5-min Rain = 0
KUM1 130826Z 34019KT 07/M08 A2972 RMK A01 T00651077  RH  035%=      5-min Rain = 0
KUM1 130827Z 34020KT 07/M08 A2972 RMK A01 T00651077  RH  036%=      5-min Rain = 0
KUM1 130828Z 35023KT 06/M08 A2972 RMK A01 T00641077  RH  036%=      5-min Rain = 0
KUM1 130829Z 34022KT 06/M08 A2972 RMK A01 T00641078  RH  035%=      5-min Rain = 0
KUM1 130830Z 35021G26KT 06/M08 A2972 RMK A01 T00641079  RH  035%=      5-min Rain = 0
KUM1 130831Z 35021KT 06/M08 A2972 RMK A01 T00631079  RH  036%=      5-min Rain = 0
KUM1 130832Z 35019G24KT 06/M08 A2972 RMK A01 T00621078  RH  036%=      5-min Rain = 0
KUM1 130833Z 35021KT 06/M08 A2972 RMK A01 T00611077  RH  036%=      5-min Rain = 0
KUM1 130834Z 35020KT 06/M08 A2972 RMK A01 T00611077  RH  036%=      5-min Rain = 0
KUM1 130835Z 34018KT 06/M08 A2972 RMK A01 T00601077  RH  037%=      5-min Rain = 0
KUM1 130836Z 34020KT 06/M08 A2972 RMK A01 T00601077  RH  037%=      5-min Rain = 0
KUM1 130837Z 35023KT 06/M08 A2973 RMK A01 T00601076  RH  037%=      5-min Rain = 0
KUM1 130838Z 35020KT 06/M08 A2973 RMK A01 T00601075  RH  037%=      5-min Rain = 0
KUM1 130839Z 35021KT 06/M07 A2973 RMK A01 T00591074  RH  038%=      5-min Rain = 0
KUM1 130840Z 35023KT 06/M07 A2973 RMK A01 T00591074  RH  038%=      5-min Rain = 0
KUM1 130841Z 34022KT 06/M07 A2973 RMK A01 T00591073  RH  038%=      5-min Rain = 0
KUM1 130842Z 35020KT 06/M07 A2973 RMK A01 T00581073  RH  038%=      5-min Rain = 0
KUM1 130843Z 35021KT 06/M07 A2973 RMK A01 T00571073  RH  039%=      5-min Rain = 0
KUM1 130844Z 35020KT 06/M07 A2973 RMK A01 T00581071  RH  039%=      5-min Rain = 0
KUM1 130845Z 35020KT 06/M07 A2973 RMK A01 T00561071  RH  039%=      5-min Rain = 0
KUM1 130846Z 35022KT 06/M07 A2973 RMK A01 T00561070  RH  040%=      5-min Rain = 0
KUM1 130847Z 35021G26KT 06/M07 A2973 RMK A01 T00561068  RH  040%=      5-min Rain = 0
KUM1 130848Z 35024G29KT 06/M07 A2973 RMK A01 T00561067  RH  041%=      5-min Rain = 0
KUM1 130849Z 35020KT 06/M07 A2973 RMK A01 T00561066  RH  041%=      5-min Rain = 0
KUM1 130850Z 36020G26KT 06/M07 A2973 RMK A01 T00561066  RH  041%=      5-min Rain = 0
KUM1 130851Z 35020KT 06/M07 A2974 RMK A01 T00561066  RH  041%=      5-min Rain = 0
KUM1 130852Z 36022KT 06/M07 A2974 RMK A01 T00551066  RH  041%=      5-min Rain = 0
KUM1 130853Z 36024G31KT 06/M07 A2974 RMK A01 T00551065  RH  042%=      5-min Rain = 0
KUM1 130854Z 35027KT 06/M06 A2974 RMK A01 T00551062  RH  043%=      5-min Rain = 0
KUM1 130855Z 36026G31KT 06/M06 A2974 RMK A01 T00551061  RH  043%=      5-min Rain = 0
KUM1 130856Z 36027KT 05/M06 A2974 RMK A01 T00541060  RH  043%=      5-min Rain = 0
KUM1 130857Z 36030G35KT 05/M06 A2974 RMK A01 T00541059  RH  044%=      5-min Rain = 0
KUM1 130858Z 00029KT 05/M06 A2975 RMK A01 T00541057  RH  045%=      5-min Rain = 0
KUM1 130859Z 36025G31KT 05/M06 A2975 RMK A01 T00531056  RH  045%=      5-min Rain = 0
KUM1 130900Z 00027KT 05/M06 A2975 RMK A01 T00521055  RH  046%=      5-min Rain = 0
KUM1 130901Z 36025G30KT 05/M05 A2975 RMK A01 T00521054  RH  046%=      5-min Rain = 0
KUM1 130902Z 36026KT 05/M05 A2975 RMK A01 T00511053  RH  047%=      5-min Rain = 0
KUM1 130903Z 00026KT 05/M05 A2975 RMK A01 T00501052  RH  048%=      5-min Rain = 0
KUM1 130904Z 00027KT 05/M05 A2975 RMK A01 T00491049  RH  049%=      5-min Rain = 0
KUM1 130905Z 00031KT 05/M05 A2975 RMK A01 T00481045  RH  051%=      5-min Rain = 0
KUM1 130906Z 00029G34KT 05/M04 A2975 RMK A01 T00481042  RH  052%=      5-min Rain = 0
KUM1 130907Z 00026KT 05/M04 A2975 RMK A01 T00471042  RH  053%=      5-min Rain = 0
KUM1 130908Z 01028KT 05/M04 A2975 RMK A01 T00461041  RH  053%=      5-min Rain = 0
KUM1 130909Z 01026KT 05/M04 A2975 RMK A01 T00451039  RH  054%=      5-min Rain = 0
KUM1 130910Z 01027G35KT 05/M04 A2975 RMK A01 T00451038  RH  055%=      5-min Rain = 0
KUM1 130911Z 01029KT 05/M04 A2975 RMK A01 T00451036  RH  056%=      5-min Rain = 0
KUM1 130912Z 01026KT 04/M03 A2975 RMK A01 T00441034  RH  057%=      5-min Rain = 0
KUM1 130913Z 36030G35KT 04/M03 A2975 RMK A01 T00441033  RH  058%=      5-min Rain = 0
KUM1 130914Z 01028G34KT 04/M03 A2975 RMK A01 T00431030  RH  059%=      5-min Rain = 0
KUM1 130915Z 01033G40KT 04/M03 A2975 RMK A01 T00431028  RH  060%=      5-min Rain = 0
KUM1 130916Z 01030KT 04/M03 A2976 RMK A01 T00421028  RH  060%=      5-min Rain = 0
KUM1 130917Z 01026KT 04/M03 A2976 RMK A01 T00411028  RH  061%=      5-min Rain = 0
KUM1 130918Z 01028G37KT 04/M03 A2976 RMK A01 T00401028  RH  061%=      5-min Rain = 0
KUM1 130919Z 01032KT 04/M03 A2976 RMK A01 T00391028  RH  062%=      5-min Rain = 0
KUM1 130920Z 01032G37KT 04/M03 A2976 RMK A01 T00381028  RH  062%=      5-min Rain = 0
KUM1 130921Z 00032G38KT 04/M03 A2976 RMK A01 T00371028  RH  062%=      5-min Rain = 0
KUM1 130922Z 00034KT 04/M03 A2976 RMK A01 T00361029  RH  062%=      5-min Rain = 0
KUM1 130923Z 01028G34KT 04/M03 A2976 RMK A01 T00361029  RH  063%=      5-min Rain = 0
KUM1 130924Z 01033G40KT 03/M03 A2976 RMK A01 T00341030  RH  063%=      5-min Rain = 0
KUM1 130925Z 00037G44KT 03/M03 A2976 RMK A01 T00341032  RH  062%=      5-min Rain = 0
KUM1 130926Z 01033G41KT 03/M03 A2976 RMK A01 T00341034  RH  061%=      5-min Rain = 0
KUM1 130927Z 01033KT 03/M04 A2976 RMK A01 T00331035  RH  061%=      5-min Rain = 0
KUM1 130928Z 01033G39KT 03/M04 A2976 RMK A01 T00321036  RH  061%=      5-min Rain = 0
KUM1 130929Z 01036G42KT 03/M04 A2976 RMK A01 T00321036  RH  061%=      5-min Rain = 0
KUM1 130930Z 01037G42KT 03/M04 A2976 RMK A01 T00321038  RH  060%=      5-min Rain = 0
KUM1 130931Z 01041G46KT 03/M04 A2976 RMK A01 T00321039  RH  060%=      5-min Rain = 0
KUM1 130932Z 01037KT 03/M04 A2976 RMK A01 T00321039  RH  060%=      5-min Rain = 0
KUM1 130933Z 01031G37KT 03/M04 A2976 RMK A01 T00321040  RH  060%=      5-min Rain = 0
KUM1 130934Z 01037G43KT 03/M04 A2976 RMK A01 T00311040  RH  060%=      5-min Rain = 0
KUM1 130935Z 01041G49KT 03/M04 A2976 RMK A01 T00311040  RH  059%=      5-min Rain = 0
KUM1 130936Z 02036G43KT 03/M04 A2976 RMK A01 T00311040  RH  059%=      5-min Rain = 0
KUM1 130937Z 01038G47KT 03/M04 A2975 RMK A01 T00301041  RH  059%=      5-min Rain = 0
KUM1 130938Z 01034G40KT 03/M04 A2975 RMK A01 T00301042  RH  059%=      5-min Rain = 0
KUM1 130939Z 01039G47KT 03/M04 A2975 RMK A01 T00301042  RH  059%=      5-min Rain = 0
KUM1 130940Z 01037G44KT 03/M04 A2975 RMK A01 T00301042  RH  059%=      5-min Rain = 0
KUM1 130941Z 01033G39KT 03/M04 A2975 RMK A01 T00291042  RH  059%=      5-min Rain = 0
KUM1 130942Z 01033G39KT 03/M04 A2974 RMK A01 T00281043  RH  059%=      5-min Rain = 0
KUM1 130943Z 01038G45KT 03/M04 A2975 RMK A01 T00281043  RH  060%=      5-min Rain = 0
KUM1 130944Z 01037G45KT 03/M04 A2974 RMK A01 T00281043  RH  059%=      5-min Rain = 0
KUM1 130945Z 01038KT 03/M04 A2974 RMK A01 T00281044  RH  059%=      5-min Rain = 0
KUM1 130946Z 01030G37KT 03/M04 A2974 RMK A01 T00281044  RH  059%=      5-min Rain = 0
KUM1 130947Z 01034G39KT 03/M04 A2974 RMK A01 T00271044  RH  060%=      5-min Rain = 0
KUM1 130948Z 01036G42KT 03/M04 A2974 RMK A01 T00261044  RH  060%=      5-min Rain = 0
KUM1 130949Z 01031G36KT 03/M04 A2974 RMK A01 T00261044  RH  060%=      5-min Rain = 0
KUM1 130950Z 01035KT 03/M05 A2974 RMK A01 T00261045  RH  059%=      5-min Rain = 0
KUM1 130951Z 01034G40KT 03/M05 A2974 RMK A01 T00261045  RH  059%=      5-min Rain = 0
KUM1 130952Z 01031G41KT 03/M05 A2974 RMK A01 T00261046  RH  059%=      5-min Rain = 0
KUM1 130953Z 01035G48KT 03/M05 A2974 RMK A01 T00251046  RH  059%=      5-min Rain = 0
KUM1 130954Z 01036G44KT 03/M05 A2974 RMK A01 T00251047  RH  059%=      5-min Rain = 0
KUM1 130955Z 01036G43KT 03/M05 A2974 RMK A01 T00251048  RH  059%=      5-min Rain = 0
KUM1 130956Z 01033G41KT 03/M05 A2974 RMK A01 T00251048  RH  059%=      5-min Rain = 0
KUM1 130957Z 01036G44KT 03/M05 A2974 RMK A01 T00251048  RH  059%=      5-min Rain = 0
KUM1 130958Z 01040KT 03/M05 A2975 RMK A01 T00251047  RH  059%=      5-min Rain = 0
KUM1 130959Z 01038G45KT 03/M05 A2974 RMK A01 T00261047  RH  059%=      5-min Rain = 0
KUM1 131000Z 01035G42KT 03/M05 A2974 RMK A01 T00261047  RH  059%=      5-min Rain = 0
KUM1 131001Z 01037KT 03/M05 A2974 RMK A01 T00261047  RH  059%=      5-min Rain = 0
KUM1 131002Z 01036G44KT 03/M05 A2974 RMK A01 T00261047  RH  059%=      5-min Rain = 0
KUM1 131003Z 01038G43KT 03/M05 A2974 RMK A01 T00261046  RH  059%=      5-min Rain = 0
KUM1 131004Z 01037G47KT 03/M05 A2974 RMK A01 T00261046  RH  059%=      5-min Rain = 0
KUM1 131005Z 01039G44KT 03/M05 A2974 RMK A01 T00261045  RH  059%=      5-min Rain = 0
KUM1 131006Z 01040G46KT 03/M05 A2974 RMK A01 T00261045  RH  059%=      5-min Rain = 0
KUM1 131007Z 01045KT 03/M04 A2974 RMK A01 T00271044  RH  060%=      5-min Rain = 0
KUM1 131008Z 01040G45KT 03/M04 A2974 RMK A01 T00281043  RH  060%=      5-min Rain = 0
KUM1 131009Z 01037G43KT 03/M04 A2974 RMK A01 T00281043  RH  060%=      5-min Rain = 0
KUM1 131010Z 01035G40KT 03/M04 A2974 RMK A01 T00271043  RH  060%=      5-min Rain = 0
KUM1 131011Z 01038G47KT 03/M04 A2974 RMK A01 T00271043  RH  060%=      5-min Rain = 0
KUM1 131012Z 01039G49KT 03/M04 A2975 RMK A01 T00271042  RH  061%=      5-min Rain = 0
KUM1 131013Z 01039G47KT 03/M04 A2975 RMK A01 T00271041  RH  061%=      5-min Rain = 0
KUM1 131014Z 01039G44KT 03/M04 A2975 RMK A01 T00271040  RH  061%=      5-min Rain = 0
KUM1 131015Z 01041G47KT 03/M04 A2975 RMK A01 T00271039  RH  061%=      5-min Rain = 0
KUM1 131016Z 01040G46KT 03/M04 A2975 RMK A01 T00281039  RH  062%=      5-min Rain = 0
KUM1 131017Z 01036G47KT 03/M04 A2976 RMK A01 T00281038  RH  062%=      5-min Rain = 0
KUM1 131018Z 01038G43KT 03/M04 A2976 RMK A01 T00281037  RH  062%=      5-min Rain = 0
KUM1 131019Z 01042G49KT 03/M04 A2976 RMK A01 T00281036  RH  063%=      5-min Rain = 0
KUM1 131020Z 01040G46KT 03/M04 A2976 RMK A01 T00281035  RH  063%=      5-min Rain = 0
KUM1 131021Z 01040G48KT 03/M04 A2976 RMK A01 T00291035  RH  063%=      5-min Rain = 0
KUM1 131022Z 01037G42KT 03/M03 A2977 RMK A01 T00291034  RH  063%=      5-min Rain = 0
KUM1 131023Z 01039G46KT 03/M03 A2977 RMK A01 T00291033  RH  064%=      5-min Rain = 0
KUM1 131024Z 01037G42KT 03/M03 A2976 RMK A01 T00291033  RH  064%=      5-min Rain = 0
KUM1 131025Z 01035G42KT 03/M03 A2977 RMK A01 T00291032  RH  064%=      5-min Rain = 0
KUM1 131026Z 01035G43KT 03/M03 A2977 RMK A01 T00291031  RH  065%=      5-min Rain = 0
KUM1 131027Z 01035G42KT 03/M03 A2977 RMK A01 T00291031  RH  065%=      5-min Rain = 0
KUM1 131028Z 01036G44KT 03/M03 A2977 RMK A01 T00291031  RH  065%=      5-min Rain = 0
KUM1 131029Z 01035G42KT 03/M03 A2977 RMK A01 T00291030  RH  065%=      5-min Rain = 0
KUM1 131030Z 01034G40KT 03/M03 A2977 RMK A01 T00291030  RH  065%=      5-min Rain = 0
KUM1 131031Z 01035G40KT 03/M03 A2978 RMK A01 T00291029  RH  065%=      5-min Rain = 0
KUM1 131032Z 01037G45KT 03/M03 A2978 RMK A01 T00301028  RH  066%=      5-min Rain = 0
KUM1 131033Z 01034G40KT 03/M03 A2978 RMK A01 T00301028  RH  066%=      5-min Rain = 0
KUM1 131034Z 01033G38KT 03/M03 A2978 RMK A01 T00291028  RH  066%=      5-min Rain = 0
KUM1 131035Z 01031G36KT 03/M03 A2978 RMK A01 T00291028  RH  066%=      5-min Rain = 0
KUM1 131036Z 01034KT 03/M03 A2978 RMK A01 T00291028  RH  066%=      5-min Rain = 0
KUM1 131037Z 01030G35KT 03/M03 A2978 RMK A01 T00291027  RH  066%=      5-min Rain = 0
KUM1 131038Z 01031G38KT 03/M03 A2978 RMK A01 T00291027  RH  066%=      5-min Rain = 0
KUM1 131039Z 01033KT 03/M03 A2978 RMK A01 T00301026  RH  067%=      5-min Rain = 0
KUM1 131040Z 01032G37KT 03/M03 A2978 RMK A01 T00291026  RH  067%=      5-min Rain = 0
KUM1 131041Z 01034KT 03/M03 A2979 RMK A01 T00291026  RH  067%=      5-min Rain = 0
KUM1 131042Z 01038G45KT 03/M03 A2979 RMK A01 T00291025  RH  067%=      5-min Rain = 0
KUM1 131043Z 01037G45KT 03/M03 A2979 RMK A01 T00301025  RH  067%=      5-min Rain = 0
KUM1 131044Z 01033G42KT 03/M02 A2979 RMK A01 T00301024  RH  067%=      5-min Rain = 0
KUM1 131045Z 02043G52KT 03/M02 A2979 RMK A01 T00311024  RH  067%=      5-min Rain = 0
KUM1 131046Z 01039G46KT 03/M02 A2979 RMK A01 T00311024  RH  067%=      5-min Rain = 0
KUM1 131047Z 01041G49KT 03/M02 A2979 RMK A01 T00311024  RH  067%=      5-min Rain = 0
KUM1 131048Z 01038G48KT 03/M02 A2979 RMK A01 T00311023  RH  068%=      5-min Rain = 0
KUM1 131049Z 01036G42KT 03/M02 A2979 RMK A01 T00311023  RH  068%=      5-min Rain = 0
KUM1 131050Z 01033G39KT 03/M02 A2979 RMK A01 T00311023  RH  068%=      5-min Rain = 0
KUM1 131051Z 01034G43KT 03/M02 A2979 RMK A01 T00311023  RH  068%=      5-min Rain = 0
KUM1 131052Z 01036G44KT 03/M02 A298 RMK A01 T00311022  RH  068%=      5-min Rain = 0
KUM1 131053Z 01035G40KT 03/M02 A2979 RMK A01 T00311022  RH  068%=      5-min Rain = 0
KUM1 131054Z 01032G38KT 03/M02 A298 RMK A01 T00311022  RH  068%=      5-min Rain = 0
KUM1 131055Z 01035KT 03/M02 A298 RMK A01 T00311021  RH  068%=      5-min Rain = 0
KUM1 131056Z 01032G39KT 03/M02 A298 RMK A01 T00311021  RH  069%=      5-min Rain = 0
KUM1 131057Z 01036G43KT 03/M02 A298 RMK A01 T00301021  RH  069%=      5-min Rain = 0
KUM1 131058Z 01034G40KT 03/M02 A298 RMK A01 T00311021  RH  069%=      5-min Rain = 0
KUM1 131059Z 01035G40KT 03/M02 A298 RMK A01 T00311021  RH  069%=      5-min Rain = 0
KUM1 131100Z 01037G42KT 03/M02 A298 RMK A01 T00301021  RH  069%=      5-min Rain = 0
KUM1 131101Z 01038KT 03/M02 A298 RMK A01 T00311021  RH  069%=      5-min Rain = 0
KUM1 131102Z 01034G40KT 03/M02 A2981 RMK A01 T00311021  RH  069%=      5-min Rain = 0
KUM1 131103Z 01033G39KT 03/M02 A2981 RMK A01 T00311021  RH  069%=      5-min Rain = 0
KUM1 131104Z 01030G36KT 03/M02 A2981 RMK A01 T00311021  RH  069%=      5-min Rain = 0
KUM1 131105Z 01041G47KT 03/M02 A2981 RMK A01 T00301020  RH  069%=      5-min Rain = 0
KUM1 131106Z 01035KT 03/M02 A2981 RMK A01 T00311020  RH  069%=      5-min Rain = 0
KUM1 131107Z 01033G40KT 03/M02 A2981 RMK A01 T00311020  RH  069%=      5-min Rain = 0
KUM1 131108Z 01033G38KT 03/M02 A2981 RMK A01 T00311020  RH  069%=      5-min Rain = 0
KUM1 131109Z 01032G40KT 03/M02 A2981 RMK A01 T00311020  RH  069%=      5-min Rain = 0
KUM1 131110Z 01038G45KT 03/M02 A2981 RMK A01 T00301020  RH  069%=      5-min Rain = 0
KUM1 131111Z 01038KT 03/M02 A2981 RMK A01 T00311020  RH  069%=      5-min Rain = 0
KUM1 131112Z 01034KT 03/M02 A2981 RMK A01 T00311020  RH  069%=      5-min Rain = 0
KUM1 131113Z 01034G40KT 03/M02 A2982 RMK A01 T00311020  RH  069%=      5-min Rain = 0
KUM1 131114Z 01037G43KT 03/M02 A2982 RMK A01 T00311020  RH  069%=      5-min Rain = 0
KUM1 131115Z 01037G42KT 03/M02 A2982 RMK A01 T00311020  RH  069%=      5-min Rain = 0
KUM1 131116Z 01031G38KT 03/M02 A2982 RMK A01 T00311020  RH  069%=      5-min Rain = 0
KUM1 131117Z 01036G42KT 03/M02 A2982 RMK A01 T00311021  RH  069%=      5-min Rain = 0
KUM1 131118Z 01034G42KT 03/M02 A2982 RMK A01 T00301021  RH  069%=      5-min Rain = 0
KUM1 131119Z 01032G37KT 03/M02 A2982 RMK A01 T00311021  RH  069%=      5-min Rain = 0
KUM1 131120Z 01034G42KT 03/M02 A2983 RMK A01 T00301021  RH  069%=      5-min Rain = 0
KUM1 131121Z 01032G39KT 03/M02 A2983 RMK A01 T00311021  RH  069%=      5-min Rain = 0
KUM1 131122Z 01037KT 03/M02 A2983 RMK A01 T00301021  RH  069%=      5-min Rain = 0
KUM1 131123Z 01032G37KT 03/M02 A2983 RMK A01 T00311021  RH  069%=      5-min Rain = 0
KUM1 131124Z 01032G37KT 03/M02 A2983 RMK A01 T00311021  RH  069%=      5-min Rain = 0
KUM1 131125Z 01031G36KT 03/M02 A2983 RMK A01 T00311021  RH  069%=      5-min Rain = 0
KUM1 131126Z 01029G36KT 03/M02 A2983 RMK A01 T00301022  RH  069%=      5-min Rain = 0
KUM1 131127Z 01028G33KT 03/M02 A2983 RMK A01 T00301022  RH  069%=      5-min Rain = 0
KUM1 131128Z 01032G38KT 03/M02 A2983 RMK A01 T00291022  RH  069%=      5-min Rain = 0
KUM1 131129Z 01032G41KT 03/M02 A2983 RMK A01 T00291022  RH  069%=      5-min Rain = 0
KUM1 131130Z 01034KT 03/M02 A2983 RMK A01 T00291022  RH  069%=      5-min Rain = 0
KUM1 131131Z 00033G39KT 03/M02 A2984 RMK A01 T00291022  RH  069%=      5-min Rain = 0
KUM1 131132Z 01027G35KT 03/M02 A2984 RMK A01 T00291022  RH  069%=      5-min Rain = 0
KUM1 131133Z 01031KT 03/M02 A2984 RMK A01 T00291022  RH  069%=      5-min Rain = 0
KUM1 131134Z 01031G37KT 03/M02 A2984 RMK A01 T00291022  RH  069%=      5-min Rain = 0
KUM1 131135Z 01029G35KT 03/M02 A2984 RMK A01 T00291022  RH  069%=      5-min Rain = 0
KUM1 131136Z 01033G38KT 03/M02 A2984 RMK A01 T00281022  RH  069%=      5-min Rain = 0
KUM1 131137Z 01035G43KT 03/M02 A2985 RMK A01 T00281022  RH  070%=      5-min Rain = 0
KUM1 131138Z 01033G41KT 03/M02 A2985 RMK A01 T00281022  RH  070%=      5-min Rain = 0
KUM1 131139Z 01033G38KT 03/M02 A2985 RMK A01 T00281022  RH  070%=      5-min Rain = 0
KUM1 131140Z 01034G42KT 03/M02 A2985 RMK A01 T00281022  RH  070%=      5-min Rain = 0
KUM1 131141Z 01032G39KT 03/M02 A2985 RMK A01 T00281022  RH  070%=      5-min Rain = 0
KUM1 131142Z 01034KT 03/M02 A2985 RMK A01 T00271023  RH  070%=      5-min Rain = 0
KUM1 131143Z 01038G45KT 03/M02 A2985 RMK A01 T00271023  RH  069%=      5-min Rain = 0
KUM1 131144Z 02038G46KT 03/M02 A2985 RMK A01 T00271024  RH  069%=      5-min Rain = 0
KUM1 131145Z 01033G39KT 03/M02 A2986 RMK A01 T00281024  RH  069%=      5-min Rain = 0
KUM1 131146Z 01029G37KT 03/M02 A2986 RMK A01 T00271024  RH  069%=      5-min Rain = 0
KUM1 131147Z 01030G35KT 03/M02 A2986 RMK A01 T00271024  RH  069%=      5-min Rain = 0
KUM1 131148Z 01033G38KT 03/M02 A2986 RMK A01 T00261024  RH  069%=      5-min Rain = 0
KUM1 131149Z 01032G38KT 03/M02 A2986 RMK A01 T00261024  RH  070%=      5-min Rain = 0
KUM1 131150Z 01033G39KT 03/M02 A2986 RMK A01 T00261024  RH  070%=      5-min Rain = 0
KUM1 131151Z 01034KT 03/M02 A2986 RMK A01 T00261024  RH  070%=      5-min Rain = 0
KUM1 131152Z 01033G40KT 03/M02 A2986 RMK A01 T00261024  RH  069%=      5-min Rain = 0
KUM1 131153Z 01030G36KT 03/M03 A2987 RMK A01 T00261025  RH  069%=      5-min Rain = 0
KUM1 131154Z 01033G39KT 03/M03 A2987 RMK A01 T00261025  RH  069%=      5-min Rain = 0
KUM1 131155Z 01029G35KT 03/M03 A2987 RMK A01 T00261025  RH  069%=      5-min Rain = 0
KUM1 131156Z 01034G39KT 03/M03 A2987 RMK A01 T00261025  RH  069%=      5-min Rain = 0
KUM1 131157Z 01030G35KT 03/M03 A2987 RMK A01 T00261026  RH  069%=      5-min Rain = 0
KUM1 131158Z 01035G40KT 03/M03 A2987 RMK A01 T00261026  RH  069%=      5-min Rain = 0
KUM1 131159Z 01036KT 03/M03 A2987 RMK A01 T00261027  RH  068%=      5-min Rain = 0
KUM1 131200Z 01034G42KT 03/M03 A2987 RMK A01 T00261027  RH  068%=      5-min Rain = 0
KUM1 131201Z 01032G38KT 03/M03 A2987 RMK A01 T00261028  RH  068%=      5-min Rain = 0
KUM1 131202Z 01034G41KT 03/M03 A2987 RMK A01 T00261028  RH  068%=      5-min Rain = 0
KUM1 131203Z 01032KT 03/M03 A2987 RMK A01 T00261028  RH  067%=      5-min Rain = 0
KUM1 131204Z 01034G40KT 03/M03 A2987 RMK A01 T00261029  RH  067%=      5-min Rain = 0
KUM1 131205Z 01035G43KT 03/M03 A2987 RMK A01 T00261029  RH  067%=      5-min Rain = 0
KUM1 131206Z 01035KT 03/M03 A2987 RMK A01 T00261029  RH  067%=      5-min Rain = 0
KUM1 131207Z 01035G42KT 03/M03 A2987 RMK A01 T00261029  RH  067%=      5-min Rain = 0
KUM1 131208Z 01033G38KT 03/M03 A2987 RMK A01 T00261029  RH  067%=      5-min Rain = 0
KUM1 131209Z 01036G44KT 03/M03 A2987 RMK A01 T00261030  RH  067%=      5-min Rain = 0
KUM1 131210Z 01037G43KT 03/M03 A2987 RMK A01 T00261031  RH  066%=      5-min Rain = 0
KUM1 131211Z 01032G38KT 03/M03 A2987 RMK A01 T00271031  RH  066%=      5-min Rain = 0
KUM1 131212Z 01038G49KT 03/M03 A2987 RMK A01 T00271032  RH  065%=      5-min Rain = 0
KUM1 131213Z 01035G42KT 03/M03 A2988 RMK A01 T00271032  RH  065%=      5-min Rain = 0
KUM1 131214Z 01035G46KT 03/M03 A2987 RMK A01 T00271033  RH  065%=      5-min Rain = 0
KUM1 131215Z 01039G46KT 03/M03 A2988 RMK A01 T00271034  RH  064%=      5-min Rain = 0
KUM1 131216Z 01032G37KT 03/M04 A2988 RMK A01 T00271035  RH  064%=      5-min Rain = 0
KUM1 131217Z 01034G39KT 03/M04 A2988 RMK A01 T00271035  RH  064%=      5-min Rain = 0
KUM1 131218Z 01038G48KT 03/M04 A2988 RMK A01 T00271035  RH  064%=      5-min Rain = 0
KUM1 131219Z 01038G43KT 03/M04 A2988 RMK A01 T00271036  RH  063%=      5-min Rain = 0
KUM1 131220Z 01036G44KT 03/M04 A2988 RMK A01 T00271037  RH  063%=      5-min Rain = 0
KUM1 131221Z 01034G39KT 03/M04 A2988 RMK A01 T00271037  RH  063%=      5-min Rain = 0
KUM1 131222Z 01035G41KT 03/M04 A2988 RMK A01 T00271037  RH  063%=      5-min Rain = 0
KUM1 131223Z 01031G39KT 03/M04 A2988 RMK A01 T00271038  RH  062%=      5-min Rain = 0
KUM1 131224Z 01032G39KT 03/M04 A2988 RMK A01 T00271038  RH  062%=      5-min Rain = 0
KUM1 131225Z 01037G48KT 03/M04 A2988 RMK A01 T00271038  RH  062%=      5-min Rain = 0
KUM1 131226Z 01043G48KT 03/M04 A2988 RMK A01 T00281039  RH  061%=      5-min Rain = 0
KUM1 131227Z 01038G46KT 03/M04 A2988 RMK A01 T00281039  RH  061%=      5-min Rain = 0
KUM1 131228Z 01034G40KT 03/M04 A2988 RMK A01 T00281039  RH  061%=      5-min Rain = 0
KUM1 131229Z 01032G38KT 03/M04 A2988 RMK A01 T00281040  RH  061%=      5-min Rain = 0
KUM1 131230Z 01034G40KT 03/M04 A2989 RMK A01 T00271040  RH  061%=      5-min Rain = 0
KUM1 131231Z 01030G42KT 03/M04 A2989 RMK A01 T00271040  RH  061%=      5-min Rain = 0
KUM1 131232Z 01043G49KT 03/M04 A2989 RMK A01 T00271040  RH  061%=      5-min Rain = 0
KUM1 131233Z 01034G41KT 03/M04 A2989 RMK A01 T00281041  RH  061%=      5-min Rain = 0
KUM1 131234Z 01031G40KT 03/M04 A2989 RMK A01 T00281040  RH  061%=      5-min Rain = 0
KUM1 131235Z 01036G43KT 03/M04 A2989 RMK A01 T00281041  RH  061%=      5-min Rain = 0
KUM1 131236Z 01036G43KT 03/M04 A2989 RMK A01 T00281040  RH  061%=      5-min Rain = 0
KUM1 131237Z 01036G41KT 03/M04 A2989 RMK A01 T00281041  RH  061%=      5-min Rain = 0
KUM1 131238Z 01036KT 03/M04 A2989 RMK A01 T00281040  RH  061%=      5-min Rain = 0
KUM1 131239Z 01033G38KT 03/M04 A2989 RMK A01 T00281040  RH  061%=      5-min Rain = 0
KUM1 131240Z 01035G46KT 03/M04 A2989 RMK A01 T00281040  RH  061%=      5-min Rain = 0
KUM1 131241Z 01040G49KT 03/M04 A2989 RMK A01 T00281039  RH  061%=      5-min Rain = 0
KUM1 131242Z 02044G52KT 03/M04 A299 RMK A01 T00281039  RH  061%=      5-min Rain = 0
KUM1 131243Z 01036G43KT 03/M04 A2989 RMK A01 T00281039  RH  061%=      5-min Rain = 0
KUM1 131244Z 01039G48KT 03/M04 A2989 RMK A01 T00281038  RH  062%=      5-min Rain = 0
KUM1 131245Z 01039G45KT 03/M04 A299 RMK A01 T00281038  RH  062%=      5-min Rain = 0
KUM1 131246Z 01034G39KT 03/M04 A299 RMK A01 T00281038  RH  062%=      5-min Rain = 0
KUM1 131247Z 01036G44KT 03/M04 A299 RMK A01 T00281038  RH  062%=      5-min Rain = 0
KUM1 131248Z 01036G42KT 03/M04 A299 RMK A01 T00281038  RH  062%=      5-min Rain = 0
KUM1 131249Z 01036KT 03/M04 A299 RMK A01 T00281037  RH  062%=      5-min Rain = 0
KUM1 131250Z 00035G40KT 03/M04 A299 RMK A01 T00281037  RH  062%=      5-min Rain = 0
KUM1 131251Z 01034G41KT 03/M04 A299 RMK A01 T00281037  RH  063%=      5-min Rain = 0
KUM1 131252Z 01030G35KT 03/M04 A299 RMK A01 T00271036  RH  063%=      5-min Rain = 0
KUM1 131253Z 01030G35KT 03/M04 A299 RMK A01 T00271036  RH  063%=      5-min Rain = 0
KUM1 131254Z 01027KT 03/M04 A299 RMK A01 T00271035  RH  064%=      5-min Rain = 0
KUM1 131255Z 01035G40KT 03/M04 A299 RMK A01 T00271035  RH  064%=      5-min Rain = 0
KUM1 131256Z 01034G41KT 03/M03 A2991 RMK A01 T00271034  RH  064%=      5-min Rain = 0
KUM1 131257Z 01031KT 03/M03 A2991 RMK A01 T00271033  RH  064%=      5-min Rain = 0
KUM1 131258Z 01035G44KT 03/M03 A2991 RMK A01 T00271033  RH  065%=      5-min Rain = 0
KUM1 131259Z 01035G40KT 03/M03 A2991 RMK A01 T00271032  RH  065%=      5-min Rain = 0
KUM1 131300Z 01035G40KT 03/M03 A2991 RMK A01 T00271032  RH  065%=      5-min Rain = 0
KUM1 131301Z 01033G38KT 03/M03 A2991 RMK A01 T00281031  RH  065%=      5-min Rain = 0
KUM1 131302Z 01034KT 03/M03 A2991 RMK A01 T00281031  RH  066%=      5-min Rain = 0
KUM1 131303Z 01031KT 03/M03 A2991 RMK A01 T00281030  RH  066%=      5-min Rain = 0
KUM1 131304Z 01034G43KT 03/M03 A2991 RMK A01 T00281030  RH  066%=      5-min Rain = 0
KUM1 131305Z 01034KT 03/M03 A2991 RMK A01 T00281029  RH  066%=      5-min Rain = 0
KUM1 131306Z 01030KT 03/M03 A2991 RMK A01 T00281030  RH  066%=      5-min Rain = 0
KUM1 131307Z 36035G40KT 03/M03 A2992 RMK A01 T00281030  RH  066%=      5-min Rain = 0
KUM1 131308Z 01034KT 03/M03 A2992 RMK A01 T00281029  RH  066%=      5-min Rain = 0
KUM1 131309Z 01036KT 03/M03 A2992 RMK A01 T00281029  RH  066%=      5-min Rain = 0
KUM1 131310Z 01032G40KT 03/M03 A2992 RMK A01 T00281029  RH  066%=      5-min Rain = 0
KUM1 131311Z 01036KT 03/M03 A2992 RMK A01 T00281029  RH  066%=      5-min Rain = 0
KUM1 131312Z 01033G40KT 03/M03 A2992 RMK A01 T00281030  RH  066%=      5-min Rain = 0
KUM1 131313Z 01032G41KT 03/M03 A2992 RMK A01 T00281030  RH  066%=      5-min Rain = 0
KUM1 131314Z 01034G41KT 03/M03 A2992 RMK A01 T00281029  RH  066%=      5-min Rain = 0
KUM1 131315Z 00036G43KT 03/M03 A2992 RMK A01 T00281029  RH  066%=      5-min Rain = 0
KUM1 131316Z 01030KT 03/M03 A2992 RMK A01 T00281030  RH  066%=      5-min Rain = 0
KUM1 131317Z 01029G35KT 03/M03 A2993 RMK A01 T00281030  RH  066%=      5-min Rain = 0
KUM1 131318Z 01035G41KT 03/M03 A2993 RMK A01 T00281030  RH  066%=      5-min Rain = 0
KUM1 131319Z 01033G39KT 03/M03 A2992 RMK A01 T00281031  RH  065%=      5-min Rain = 0
KUM1 131320Z 01030G35KT 03/M03 A2993 RMK A01 T00281031  RH  065%=      5-min Rain = 0
KUM1 131321Z 01031G36KT 03/M03 A2993 RMK A01 T00281031  RH  065%=      5-min Rain = 0
KUM1 131322Z 01036KT 03/M03 A2992 RMK A01 T00281032  RH  065%=      5-min Rain = 0
KUM1 131323Z 01032G37KT 03/M03 A2993 RMK A01 T00281033  RH  064%=      5-min Rain = 0
KUM1 131324Z 01029G38KT 03/M03 A2993 RMK A01 T00281033  RH  064%=      5-min Rain = 0
KUM1 131325Z 01038G43KT 03/M03 A2993 RMK A01 T00281033  RH  064%=      5-min Rain = 0
KUM1 131326Z 01036G41KT 03/M03 A2993 RMK A01 T00281033  RH  064%=      5-min Rain = 0
KUM1 131327Z 01034G42KT 03/M03 A2993 RMK A01 T00281034  RH  064%=      5-min Rain = 0
KUM1 131328Z 01036KT 03/M03 A2993 RMK A01 T00291034  RH  063%=      5-min Rain = 0
KUM1 131329Z 01033G39KT 03/M04 A2994 RMK A01 T00291035  RH  063%=      5-min Rain = 0
KUM1 131330Z 01032G37KT 03/M04 A2994 RMK A01 T00291035  RH  063%=      5-min Rain = 0
KUM1 131331Z 01028G34KT 03/M03 A2994 RMK A01 T00291034  RH  063%=      5-min Rain = 0
KUM1 131332Z 01030G37KT 03/M04 A2994 RMK A01 T00281035  RH  063%=      5-min Rain = 0
KUM1 131333Z 01030G35KT 03/M04 A2994 RMK A01 T00281035  RH  063%=      5-min Rain = 0
KUM1 131334Z 01039G45KT 03/M04 A2994 RMK A01 T00281036  RH  063%=      5-min Rain = 0
KUM1 131335Z 01038G45KT 03/M04 A2994 RMK A01 T00291037  RH  062%=      5-min Rain = 0
KUM1 131336Z 01035G40KT 03/M04 A2994 RMK A01 T00291037  RH  062%=      5-min Rain = 0
KUM1 131337Z 01035G40KT 03/M04 A2994 RMK A01 T00291037  RH  062%=      5-min Rain = 0
KUM1 131338Z 01035KT 03/M04 A2994 RMK A01 T00291037  RH  062%=      5-min Rain = 0
KUM1 131339Z 01035G43KT 03/M04 A2994 RMK A01 T00291038  RH  061%=      5-min Rain = 0
KUM1 131340Z 01032G39KT 03/M04 A2994 RMK A01 T00291038  RH  061%=      5-min Rain = 0
KUM1 131341Z 01031KT 03/M04 A2994 RMK A01 T00291038  RH  061%=      5-min Rain = 0
KUM1 131342Z 01033G38KT 03/M04 A2994 RMK A01 T00291038  RH  061%=      5-min Rain = 0
KUM1 131343Z 01035G40KT 03/M04 A2994 RMK A01 T00281039  RH  061%=      5-min Rain = 0
KUM1 131344Z 01036KT 03/M04 A2994 RMK A01 T00291040  RH  061%=      5-min Rain = 0
KUM1 131345Z 01032G39KT 03/M04 A2995 RMK A01 T00291040  RH  061%=      5-min Rain = 0
KUM1 131346Z 01031G37KT 03/M04 A2994 RMK A01 T00291041  RH  060%=      5-min Rain = 0
KUM1 131347Z 01033G40KT 03/M04 A2994 RMK A01 T00291042  RH  060%=      5-min Rain = 0
KUM1 131348Z 00031G41KT 03/M04 A2995 RMK A01 T00281042  RH  060%=      5-min Rain = 0
KUM1 131349Z 00036G42KT 03/M04 A2995 RMK A01 T00291043  RH  059%=      5-min Rain = 0
KUM1 131350Z 01040KT 03/M04 A2995 RMK A01 T00291044  RH  059%=      5-min Rain = 0
KUM1 131351Z 00035G44KT 03/M05 A2995 RMK A01 T00301045  RH  058%=      5-min Rain = 0
KUM1 131352Z 01033G41KT 03/M05 A2995 RMK A01 T00301045  RH  058%=      5-min Rain = 0
KUM1 131353Z 01032G38KT 03/M05 A2995 RMK A01 T00301045  RH  058%=      5-min Rain = 0
KUM1 131354Z 01036G45KT 03/M05 A2995 RMK A01 T00291046  RH  058%=      5-min Rain = 0
KUM1 131355Z 01032G39KT 03/M05 A2995 RMK A01 T00301047  RH  057%=      5-min Rain = 0
KUM1 131356Z 01037KT 03/M05 A2995 RMK A01 T00291048  RH  057%=      5-min Rain = 0
KUM1 131357Z 01032G40KT 03/M05 A2995 RMK A01 T00301049  RH  056%=      5-min Rain = 0
KUM1 131358Z 00035G43KT 03/M05 A2995 RMK A01 T00301049  RH  056%=      5-min Rain = 0
KUM1 131359Z 01039KT 03/M05 A2995 RMK A01 T00301050  RH  056%=      5-min Rain = 0
KUM1 131400Z 01036G45KT 03/M05 A2996 RMK A01 T00301051  RH  055%=      5-min Rain = 0
KUM1 131401Z 00034G42KT 03/M05 A2995 RMK A01 T00301051  RH  055%=      5-min Rain = 0
KUM1 131402Z 01030KT 03/M05 A2995 RMK A01 T00301051  RH  055%=      5-min Rain = 0
KUM1 131403Z 00037KT 03/M05 A2995 RMK A01 T00301051  RH  055%=      5-min Rain = 0
KUM1 131404Z 01038G46KT 03/M05 A2996 RMK A01 T00301052  RH  055%=      5-min Rain = 0
KUM1 131405Z 00038G45KT 03/M05 A2996 RMK A01 T00301053  RH  054%=      5-min Rain = 0
KUM1 131406Z 01036G42KT 03/M05 A2996 RMK A01 T00301054  RH  054%=      5-min Rain = 0
KUM1 131407Z 01036G46KT 03/M05 A2996 RMK A01 T00301054  RH  054%=      5-min Rain = 0
KUM1 131408Z 00034G42KT 03/M06 A2996 RMK A01 T00311055  RH  054%=      5-min Rain = 0
KUM1 131409Z 00037G43KT 03/M06 A2996 RMK A01 T00301055  RH  053%=      5-min Rain = 0
KUM1 131410Z 01035G41KT 03/M06 A2996 RMK A01 T00301056  RH  053%=      5-min Rain = 0
KUM1 131411Z 01041G47KT 03/M06 A2996 RMK A01 T00311056  RH  053%=      5-min Rain = 0
KUM1 131412Z 01036G43KT 03/M06 A2996 RMK A01 T00311058  RH  052%=      5-min Rain = 0
KUM1 131413Z 00036G42KT 03/M06 A2997 RMK A01 T00311058  RH  052%=      5-min Rain = 0
KUM1 131414Z 00039G47KT 03/M06 A2996 RMK A01 T00311058  RH  052%=      5-min Rain = 0
KUM1 131415Z 00038G44KT 03/M06 A2997 RMK A01 T00311058  RH  052%=      5-min Rain = 0
KUM1 131416Z 00037G44KT 03/M06 A2997 RMK A01 T00311059  RH  052%=      5-min Rain = 0
KUM1 131417Z 00038G44KT 03/M06 A2997 RMK A01 T00311059  RH  052%=      5-min Rain = 0
KUM1 131418Z 01037G44KT 03/M06 A2997 RMK A01 T00311059  RH  052%=      5-min Rain = 0
KUM1 131419Z 00037G43KT 03/M06 A2997 RMK A01 T00311059  RH  052%=      5-min Rain = 0
KUM1 131420Z 00035G40KT 03/M06 A2997 RMK A01 T00311059  RH  052%=      5-min Rain = 0
KUM1 131421Z 01036G42KT 03/M06 A2997 RMK A01 T00311060  RH  051%=      5-min Rain = 0
KUM1 131422Z 01036G44KT 03/M06 A2997 RMK A01 T00311059  RH  052%=      5-min Rain = 0
KUM1 131423Z 01037KT 03/M06 A2997 RMK A01 T00311059  RH  051%=      5-min Rain = 0
KUM1 131424Z 00034G41KT 03/M06 A2997 RMK A01 T00311060  RH  051%=      5-min Rain = 0
KUM1 131425Z 01035G43KT 03/M06 A2997 RMK A01 T00311060  RH  051%=      5-min Rain = 0
KUM1 131426Z 00038G43KT 03/M06 A2997 RMK A01 T00311061  RH  051%=      5-min Rain = 0
KUM1 131427Z 01037G44KT 03/M06 A2997 RMK A01 T00311061  RH  051%=      5-min Rain = 0
KUM1 131428Z 01039KT 03/M06 A2997 RMK A01 T00311062  RH  051%=      5-min Rain = 0
KUM1 131429Z 01038G44KT 03/M06 A2998 RMK A01 T00321062  RH  050%=      5-min Rain = 0
KUM1 131430Z 00035KT 03/M06 A2998 RMK A01 T00311062  RH  050%=      5-min Rain = 0
KUM1 131431Z 36038KT 03/M06 A2998 RMK A01 T00311062  RH  050%=      5-min Rain = 0
KUM1 131432Z 00040G46KT 03/M06 A2997 RMK A01 T00321062  RH  050%=      5-min Rain = 0
KUM1 131433Z 00042G49KT 03/M06 A2998 RMK A01 T00311063  RH  050%=      5-min Rain = 0
KUM1 131434Z 01036G41KT 03/M06 A2998 RMK A01 T00311064  RH  050%=      5-min Rain = 0
KUM1 131435Z 00038G46KT 03/M06 A2998 RMK A01 T00311064  RH  050%=      5-min Rain = 0
KUM1 131436Z 00032G41KT 03/M06 A2998 RMK A01 T00311064  RH  050%=      5-min Rain = 0
KUM1 131437Z 36033G38KT 03/M06 A2998 RMK A01 T00321063  RH  050%=      5-min Rain = 0
KUM1 131438Z 00032G37KT 03/M06 A2998 RMK A01 T00311063  RH  050%=      5-min Rain = 0
KUM1 131439Z 00032G38KT 03/M06 A2998 RMK A01 T00311063  RH  050%=      5-min Rain = 0
KUM1 131440Z 00032G41KT 03/M06 A2999 RMK A01 T00311063  RH  050%=      5-min Rain = 0
KUM1 131441Z 00034KT 03/M06 A2999 RMK A01 T00311063  RH  050%=      5-min Rain = 0
KUM1 131442Z 00037KT 03/M07 A2999 RMK A01 T00311065  RH  049%=      5-min Rain = 0
KUM1 131443Z 01039G45KT 03/M07 A2999 RMK A01 T00311066  RH  049%=      5-min Rain = 0
KUM1 131444Z 01038G45KT 03/M07 A2999 RMK A01 T00311067  RH  048%=      5-min Rain = 0
KUM1 131445Z 00037G44KT 03/M07 A2999 RMK A01 T00311068  RH  048%=      5-min Rain = 0
KUM1 131446Z 00039G47KT 03/M07 A2999 RMK A01 T00311068  RH  048%=      5-min Rain = 0
KUM1 131447Z 00036KT 03/M07 A2999 RMK A01 T00321067  RH  048%=      5-min Rain = 0
KUM1 131448Z 01039G47KT 03/M07 A2999 RMK A01 T00321068  RH  048%=      5-min Rain = 0
KUM1 131449Z 00039G44KT 03/M07 A2999 RMK A01 T00321068  RH  048%=      5-min Rain = 0
KUM1 131450Z 00039G46KT 03/M07 A2999 RMK A01 T00321069  RH  048%=      5-min Rain = 0
KUM1 131451Z 00035G40KT 03/M07 A2999 RMK A01 T00321069  RH  048%=      5-min Rain = 0
KUM1 131452Z 01037G42KT 03/M07 A2999 RMK A01 T00321068  RH  048%=      5-min Rain = 0
KUM1 131453Z 00039G46KT 03/M07 A2999 RMK A01 T00321069  RH  048%=      5-min Rain = 0
KUM1 131454Z 01034G40KT 03/M07 A30 RMK A01 T00321069  RH  048%=      5-min Rain = 0
KUM1 131455Z 01029G34KT 03/M07 A30 RMK A01 T00321068  RH  048%=      5-min Rain = 0
KUM1 131456Z 01032G39KT 03/M07 A2999 RMK A01 T00321067  RH  048%=      5-min Rain = 0
KUM1 131457Z 36030G37KT 03/M07 A30 RMK A01 T00321068  RH  048%=      5-min Rain = 0
KUM1 131458Z 36035G43KT 03/M07 A30 RMK A01 T00321068  RH  048%=      5-min Rain = 0
KUM1 131459Z 00035G42KT 03/M07 A30 RMK A01 T00321069  RH  048%=      5-min Rain = 0
KUM1 131500Z 36034G41KT 03/M07 A30 RMK A01 T00321070  RH  047%=      5-min Rain = 0
KUM1 131501Z 00034KT 03/M07 A30 RMK A01 T00321070  RH  047%=      5-min Rain = 0
KUM1 131502Z 00039G44KT 03/M07 A2999 RMK A01 T00311071  RH  047%=      5-min Rain = 0
KUM1 131503Z 00036G42KT 03/M07 A30 RMK A01 T00321071  RH  047%=      5-min Rain = 0
KUM1 131504Z 00038G45KT 03/M07 A30 RMK A01 T00321072  RH  047%=      5-min Rain = 0
KUM1 131505Z 00035G45KT 03/M07 A30 RMK A01 T00321072  RH  047%=      5-min Rain = 0
KUM1 131506Z 00036G45KT 03/M07 A30 RMK A01 T00321072  RH  047%=      5-min Rain = 0
KUM1 131507Z 00036G41KT 03/M07 A30 RMK A01 T00321072  RH  046%=      5-min Rain = 0
KUM1 131508Z 00033G40KT 03/M07 A30 RMK A01 T00321072  RH  046%=      5-min Rain = 0
KUM1 131509Z 00038G45KT 03/M07 A30 RMK A01 T00321073  RH  046%=      5-min Rain = 0
KUM1 131510Z 00037G45KT 03/M07 A30 RMK A01 T00321073  RH  046%=      5-min Rain = 0
KUM1 131511Z 00036G45KT 03/M07 A30 RMK A01 T00321073  RH  046%=      5-min Rain = 0
KUM1 131512Z 00036G45KT 03/M07 A30 RMK A01 T00321074  RH  046%=      5-min Rain = 0
KUM1 131513Z 00038G45KT 03/M07 A30 RMK A01 T00321074  RH  046%=      5-min Rain = 0
KUM1 131514Z 00038G43KT 03/M08 A30 RMK A01 T00321075  RH  045%=      5-min Rain = 0
KUM1 131515Z 00034G43KT 03/M08 A3001 RMK A01 T00321075  RH  045%=      5-min Rain = 0
KUM1 131516Z 00039G44KT 03/M07 A30 RMK A01 T00321074  RH  046%=      5-min Rain = 0
KUM1 131517Z 00038G43KT 03/M08 A30 RMK A01 T00321076  RH  045%=      5-min Rain = 0
KUM1 131518Z 01039KT 03/M08 A3001 RMK A01 T00321076  RH  045%=      5-min Rain = 0
KUM1 131519Z 00040G45KT 03/M08 A3001 RMK A01 T00321076  RH  045%=      5-min Rain = 0
KUM1 131520Z 00032G37KT 03/M08 A3001 RMK A01 T00321076  RH  045%=      5-min Rain = 0
KUM1 131521Z 00035G41KT 03/M08 A3001 RMK A01 T00321075  RH  045%=      5-min Rain = 0
KUM1 131522Z 00033KT 03/M08 A3001 RMK A01 T00321076  RH  045%=      5-min Rain = 0
KUM1 131523Z 00038KT 03/M08 A3001 RMK A01 T00321075  RH  045%=      5-min Rain = 0
KUM1 131524Z 00033G39KT 03/M08 A3001 RMK A01 T00321076  RH  045%=      5-min Rain = 0
KUM1 131525Z 00030G36KT 03/M08 A3001 RMK A01 T00331075  RH  045%=      5-min Rain = 0
KUM1 131526Z 00030G36KT 03/M08 A3001 RMK A01 T00331075  RH  045%=      5-min Rain = 0
KUM1 131527Z 00025KT 03/M07 A3001 RMK A01 T00331073  RH  046%=      5-min Rain = 0
KUM1 131528Z 36033G40KT 03/M07 A3001 RMK A01 T00341072  RH  046%=      5-min Rain = 0
KUM1 131529Z 00037G44KT 03/M07 A3001 RMK A01 T00341074  RH  045%=      5-min Rain = 0
KUM1 131530Z 36039G45KT 03/M08 A3001 RMK A01 T00331076  RH  045%=      5-min Rain = 0
KUM1 131531Z 00038G49KT 03/M08 A3001 RMK A01 T00331076  RH  044%=      5-min Rain = 0
KUM1 131532Z 00033G39KT 03/M08 A3001 RMK A01 T00341076  RH  044%=      5-min Rain = 0
KUM1 131533Z 00038G43KT 03/M08 A3001 RMK A01 T00331076  RH  044%=      5-min Rain = 0
KUM1 131534Z 01038G46KT 03/M08 A3002 RMK A01 T00331077  RH  044%=      5-min Rain = 0
KUM1 131535Z 01035G41KT 03/M08 A3002 RMK A01 T00341077  RH  044%=      5-min Rain = 0
KUM1 131536Z 00033G45KT 03/M08 A3002 RMK A01 T00341076  RH  044%=      5-min Rain = 0
KUM1 131537Z 00036G43KT 03/M08 A3002 RMK A01 T00341077  RH  044%=      5-min Rain = 0
KUM1 131538Z 00031KT 03/M08 A3002 RMK A01 T00341076  RH  044%=      5-min Rain = 0
KUM1 131539Z 36040G45KT 03/M08 A3002 RMK A01 T00341076  RH  044%=      5-min Rain = 0
KUM1 131540Z 00035KT 03/M08 A3002 RMK A01 T00341077  RH  044%=      5-min Rain = 0
KUM1 131541Z 00039KT 03/M08 A3002 RMK A01 T00341077  RH  044%=      5-min Rain = 0
KUM1 131542Z 00035G41KT 03/M08 A3002 RMK A01 T00341078  RH  044%=      5-min Rain = 0
KUM1 131543Z 00037G43KT 03/M08 A3002 RMK A01 T00341077  RH  044%=      5-min Rain = 0
KUM1 131544Z 36037G44KT 03/M08 A3002 RMK A01 T00341077  RH  044%=      5-min Rain = 0
KUM1 131545Z 00035G45KT 03/M08 A3002 RMK A01 T00341077  RH  044%=      5-min Rain = 0
KUM1 131546Z 01036G43KT 03/M08 A3002 RMK A01 T00341077  RH  044%=      5-min Rain = 0
KUM1 131547Z 00036G44KT 03/M08 A3002 RMK A01 T00341077  RH  044%=      5-min Rain = 0
KUM1 131548Z 36037G43KT 03/M08 A3002 RMK A01 T00341077  RH  044%=      5-min Rain = 0
KUM1 131549Z 01033G38KT 03/M08 A3003 RMK A01 T00341077  RH  044%=      5-min Rain = 0
KUM1 131550Z 00036G45KT 04/M08 A3003 RMK A01 T00351077  RH  044%=      5-min Rain = 0
KUM1 131551Z 01034G41KT 03/M08 A3003 RMK A01 T00341077  RH  044%=      5-min Rain = 0
KUM1 131552Z 00040KT 04/M08 A3002 RMK A01 T00351077  RH  044%=      5-min Rain = 0
KUM1 131553Z 36038G44KT 04/M08 A3002 RMK A01 T00351077  RH  044%=      5-min Rain = 0
KUM1 131554Z 36034KT 04/M08 A3003 RMK A01 T00351077  RH  044%=      5-min Rain = 0
KUM1 131555Z 00039G44KT 04/M08 A3003 RMK A01 T00351077  RH  044%=      5-min Rain = 0
KUM1 131556Z 00036G41KT 03/M08 A3003 RMK A01 T00341078  RH  044%=      5-min Rain = 0
KUM1 131557Z 36034G43KT 03/M08 A3003 RMK A01 T00341078  RH  044%=      5-min Rain = 0
KUM1 131558Z 01032KT 04/M08 A3003 RMK A01 T00351076  RH  044%=      5-min Rain = 0
KUM1 131559Z 00036G43KT 04/M08 A3003 RMK A01 T00351076  RH  044%=      5-min Rain = 0
KUM1 131600Z 00037KT 04/M08 A3003 RMK A01 T00351077  RH  043%=      5-min Rain = 0
KUM1 131601Z 00039KT 04/M08 A3003 RMK A01 T00351078  RH  043%=      5-min Rain = 0
KUM1 131602Z 01035G42KT 04/M08 A3003 RMK A01 T00351078  RH  044%=      5-min Rain = 0
KUM1 131603Z 01030G36KT 04/M08 A3003 RMK A01 T00351076  RH  044%=      5-min Rain = 0
KUM1 131604Z 00033G38KT 04/M08 A3003 RMK A01 T00351076  RH  044%=      5-min Rain = 0
KUM1 131605Z 00035KT 04/M08 A3003 RMK A01 T00351076  RH  044%=      5-min Rain = 0
KUM1 131606Z 00033G45KT 04/M08 A3003 RMK A01 T00361076  RH  044%=      5-min Rain = 0
KUM1 131607Z 01039G45KT 04/M08 A3004 RMK A01 T00361077  RH  044%=      5-min Rain = 0
KUM1 131608Z 00040G45KT 04/M08 A3004 RMK A01 T00361077  RH  043%=      5-min Rain = 0
KUM1 131609Z 01036G42KT 04/M08 A3004 RMK A01 T00361077  RH  043%=      5-min Rain = 0
KUM1 131610Z 01031KT 04/M08 A3004 RMK A01 T00361077  RH  043%=      5-min Rain = 0
KUM1 131611Z 00031G39KT 04/M08 A3004 RMK A01 T00361076  RH  044%=      5-min Rain = 0
KUM1 131612Z 36036G43KT 04/M08 A3004 RMK A01 T00371076  RH  043%=      5-min Rain = 0
KUM1 131613Z 00035G40KT 04/M08 A3004 RMK A01 T00371076  RH  043%=      5-min Rain = 0
KUM1 131614Z 01030G36KT 04/M08 A3004 RMK A01 T00371076  RH  044%=      5-min Rain = 0
KUM1 131615Z 01031KT 04/M08 A3004 RMK A01 T00371075  RH  044%=      5-min Rain = 0
KUM1 131616Z 00033G41KT 04/M08 A3004 RMK A01 T00371075  RH  044%=      5-min Rain = 0
KUM1 131617Z 00035G40KT 04/M08 A3004 RMK A01 T00381075  RH  043%=      5-min Rain = 0
KUM1 131618Z 36035KT 04/M08 A3004 RMK A01 T00381075  RH  043%=      5-min Rain = 0
KUM1 131619Z 36036G41KT 04/M08 A3004 RMK A01 T00381075  RH  044%=      5-min Rain = 0
KUM1 131620Z 00038G45KT 04/M08 A3004 RMK A01 T00371076  RH  043%=      5-min Rain = 0
KUM1 131621Z 00036G41KT 04/M08 A3004 RMK A01 T00371077  RH  043%=      5-min Rain = 0
KUM1 131622Z 01035KT 04/M08 A3005 RMK A01 T00371076  RH  044%=      5-min Rain = 0
KUM1 131623Z 00040G45KT 04/M08 A3005 RMK A01 T00371076  RH  043%=      5-min Rain = 0
KUM1 131624Z 36040G49KT 04/M08 A3005 RMK A01 T00371076  RH  043%=      5-min Rain = 0
KUM1 131625Z 00039G46KT 04/M08 A3005 RMK A01 T00371076  RH  043%=      5-min Rain = 0
KUM1 131626Z 36042G47KT 04/M08 A3005 RMK A01 T00371076  RH  043%=      5-min Rain = 0
KUM1 131627Z 00037KT 04/M08 A3005 RMK A01 T00371076  RH  044%=      5-min Rain = 0
KUM1 131628Z 01035G42KT 04/M08 A3005 RMK A01 T00371075  RH  044%=      5-min Rain = 0
KUM1 131629Z 00035G41KT 04/M07 A3005 RMK A01 T00381074  RH  044%=      5-min Rain = 0
KUM1 131630Z 36039G45KT 04/M07 A3005 RMK A01 T00381074  RH  044%=      5-min Rain = 0
KUM1 131631Z 00040KT 04/M07 A3005 RMK A01 T00381074  RH  044%=      5-min Rain = 0
KUM1 131632Z 36037G44KT 04/M08 A3005 RMK A01 T00381075  RH  044%=      5-min Rain = 0
KUM1 131633Z 00037KT 04/M07 A3005 RMK A01 T00371074  RH  044%=      5-min Rain = 0
KUM1 131634Z 00043G51KT 04/M07 A3005 RMK A01 T00371074  RH  044%=      5-min Rain = 0
KUM1 131635Z 36036G41KT 04/M07 A3005 RMK A01 T00371074  RH  044%=      5-min Rain = 0
KUM1 131636Z 00039G49KT 04/M07 A3005 RMK A01 T00371072  RH  045%=      5-min Rain = 0
KUM1 131637Z 00039G47KT 04/M07 A3005 RMK A01 T00371073  RH  044%=      5-min Rain = 0
KUM1 131638Z 00038G43KT 04/M07 A3006 RMK A01 T00371073  RH  044%=      5-min Rain = 0
KUM1 131639Z 01035G43KT 04/M07 A3006 RMK A01 T00371073  RH  044%=      5-min Rain = 0
KUM1 131640Z 01036G44KT 04/M07 A3006 RMK A01 T00371072  RH  044%=      5-min Rain = 0
KUM1 131641Z 01040G46KT 04/M07 A3006 RMK A01 T00381072  RH  044%=      5-min Rain = 0
KUM1 131642Z 01038KT 04/M07 A3006 RMK A01 T00371073  RH  044%=      5-min Rain = 0
KUM1 131643Z 01037KT 04/M07 A3006 RMK A01 T00371072  RH  045%=      5-min Rain = 0
KUM1 131644Z 01034G40KT 04/M07 A3006 RMK A01 T00371072  RH  045%=      5-min Rain = 0
KUM1 131645Z 01033G38KT 04/M07 A3006 RMK A01 T00381071  RH  045%=      5-min Rain = 0
KUM1 131646Z 00033G38KT 04/M07 A3006 RMK A01 T00391070  RH  045%=      5-min Rain = 0
KUM1 131647Z 00032G38KT 04/M07 A3006 RMK A01 T00391071  RH  045%=      5-min Rain = 0
KUM1 131648Z 01033KT 04/M07 A3006 RMK A01 T00401070  RH  045%=      5-min Rain = 0
KUM1 131649Z 00033G41KT 04/M07 A3006 RMK A01 T00401070  RH  044%=      5-min Rain = 0
KUM1 131650Z 36037G43KT 04/M07 A3006 RMK A01 T00391071  RH  045%=      5-min Rain = 0
KUM1 131651Z 00041G47KT 04/M07 A3006 RMK A01 T00381072  RH  044%=      5-min Rain = 0
KUM1 131652Z 36036G43KT 04/M07 A3006 RMK A01 T00381072  RH  045%=      5-min Rain = 0
KUM1 131653Z 00035G40KT 04/M07 A3006 RMK A01 T00391070  RH  045%=      5-min Rain = 0
KUM1 131654Z 00031G38KT 04/M07 A3006 RMK A01 T00391070  RH  045%=      5-min Rain = 0
KUM1 131655Z 00036G42KT 04/M07 A3006 RMK A01 T00401068  RH  045%=      5-min Rain = 0
KUM1 131656Z 00040G46KT 04/M07 A3006 RMK A01 T00401070  RH  044%=      5-min Rain = 0
KUM1 131657Z 01038G45KT 04/M07 A3006 RMK A01 T00391071  RH  045%=      5-min Rain = 0
KUM1 131658Z 00036G43KT 04/M07 A3006 RMK A01 T00381070  RH  045%=      5-min Rain = 0
KUM1 131659Z 00036G43KT 04/M07 A3007 RMK A01 T00381071  RH  045%=      5-min Rain = 0
KUM1 131700Z 00031G36KT 04/M07 A3006 RMK A01 T00391070  RH  045%=      5-min Rain = 0
KUM1 131701Z 00032G38KT 04/M07 A3006 RMK A01 T00391069  RH  045%=      5-min Rain = 0
KUM1 131702Z 00032KT 04/M07 A3006 RMK A01 T00401068  RH  045%=      5-min Rain = 0
KUM1 131703Z 36036G41KT 04/M07 A3006 RMK A01 T00401069  RH  045%=      5-min Rain = 0
KUM1 131704Z 36037KT 04/M07 A3006 RMK A01 T00401069  RH  045%=      5-min Rain = 0
KUM1 131705Z 01039G46KT 04/M07 A3006 RMK A01 T00401071  RH  044%=      5-min Rain = 0
KUM1 131706Z 01035G40KT 04/M07 A3007 RMK A01 T00391071  RH  045%=      5-min Rain = 0
KUM1 131707Z 36037G47KT 04/M07 A3006 RMK A01 T00401070  RH  045%=      5-min Rain = 0
KUM1 131708Z 36034KT 04/M07 A3006 RMK A01 T00401070  RH  045%=      5-min Rain = 0
KUM1 131709Z 00030G40KT 04/M07 A3007 RMK A01 T00411068  RH  045%=      5-min Rain = 0
KUM1 131710Z 00036G42KT 04/M07 A3006 RMK A01 T00421067  RH  045%=      5-min Rain = 0
KUM1 131711Z 36035G42KT 04/M07 A3006 RMK A01 T00421068  RH  044%=      5-min Rain = 0
KUM1 131712Z 00037G44KT 04/M07 A3006 RMK A01 T00411070  RH  044%=      5-min Rain = 0
KUM1 131713Z 00038G44KT 04/M07 A3006 RMK A01 T00401069  RH  045%=      5-min Rain = 0
KUM1 131714Z 00039G46KT 04/M07 A3006 RMK A01 T00411070  RH  045%=      5-min Rain = 0
KUM1 131715Z 00033G38KT 04/M07 A3007 RMK A01 T00401070  RH  045%=      5-min Rain = 0
KUM1 131716Z 00034G39KT 04/M07 A3007 RMK A01 T00411069  RH  045%=      5-min Rain = 0
KUM1 131717Z 00034G43KT 04/M07 A3007 RMK A01 T00421068  RH  045%=      5-min Rain = 0
KUM1 131718Z 36034G40KT 04/M07 A3006 RMK A01 T00421068  RH  045%=      5-min Rain = 0
KUM1 131719Z 00037G44KT 04/M07 A3007 RMK A01 T00431068  RH  044%=      5-min Rain = 0
KUM1 131720Z 01041KT 04/M07 A3007 RMK A01 T00421070  RH  044%=      5-min Rain = 0
KUM1 131721Z 00036G41KT 04/M07 A3007 RMK A01 T00421070  RH  044%=      5-min Rain = 0
KUM1 131722Z 00036G41KT 04/M07 A3007 RMK A01 T00421069  RH  044%=      5-min Rain = 0
KUM1 131723Z 00033G42KT 04/M07 A3007 RMK A01 T00411069  RH  044%=      5-min Rain = 0
KUM1 131724Z 36033G39KT 04/M07 A3007 RMK A01 T00411069  RH  044%=      5-min Rain = 0
KUM1 131725Z 36033G40KT 04/M07 A3007 RMK A01 T00411069  RH  045%=      5-min Rain = 0
KUM1 131726Z 00039G44KT 04/M07 A3007 RMK A01 T00421069  RH  044%=      5-min Rain = 0
KUM1 131727Z 00038G44KT 04/M07 A3007 RMK A01 T00411071  RH  044%=      5-min Rain = 0
KUM1 131728Z 00040G47KT 04/M07 A3007 RMK A01 T00411071  RH  044%=      5-min Rain = 0
KUM1 131729Z 00037G42KT 04/M07 A3007 RMK A01 T00411071  RH  044%=      5-min Rain = 0
KUM1 131730Z 36037G45KT 04/M07 A3007 RMK A01 T00411071  RH  044%=      5-min Rain = 0
KUM1 131731Z 01037G43KT 04/M07 A3007 RMK A01 T00401071  RH  044%=      5-min Rain = 0
KUM1 131732Z 01029G34KT 04/M07 A3007 RMK A01 T00411070  RH  044%=      5-min Rain = 0
KUM1 131733Z 01034G40KT 04/M07 A3007 RMK A01 T00421069  RH  044%=      5-min Rain = 0
KUM1 131734Z 00032G38KT 04/M07 A3007 RMK A01 T00421070  RH  044%=      5-min Rain = 0
KUM1 131735Z 00034KT 04/M07 A3007 RMK A01 T00421070  RH  044%=      5-min Rain = 0
KUM1 131736Z 36034KT 04/M07 A3007 RMK A01 T00411071  RH  044%=      5-min Rain = 0
KUM1 131737Z 36033G39KT 04/M07 A3007 RMK A01 T00411071  RH  044%=      5-min Rain = 0
KUM1 131738Z 00027KT 04/M07 A3007 RMK A01 T00411070  RH  044%=      5-min Rain = 0
KUM1 131739Z 36032KT 04/M07 A3007 RMK A01 T00431069  RH  044%=      5-min Rain = 0
KUM1 131740Z 36030KT 04/M07 A3007 RMK A01 T00431070  RH  044%=      5-min Rain = 0
KUM1 131741Z 36035G43KT 04/M07 A3007 RMK A01 T00431070  RH  044%=      5-min Rain = 0
KUM1 131742Z 36035G42KT 04/M07 A3007 RMK A01 T00431071  RH  043%=      5-min Rain = 0
KUM1 131743Z 00037G42KT 04/M07 A3007 RMK A01 T00431073  RH  043%=      5-min Rain = 0
KUM1 131744Z 01035G42KT 04/M07 A3008 RMK A01 T00421073  RH  043%=      5-min Rain = 0
KUM1 131745Z 00035G41KT 04/M07 A3007 RMK A01 T00421074  RH  043%=      5-min Rain = 0
KUM1 131746Z 01032G40KT 04/M07 A3007 RMK A01 T00421074  RH  043%=      5-min Rain = 0
KUM1 131747Z 00036G43KT 04/M07 A3007 RMK A01 T00431073  RH  043%=      5-min Rain = 0
KUM1 131748Z 36035KT 04/M07 A3007 RMK A01 T00431074  RH  042%=      5-min Rain = 0
KUM1 131749Z 36034G42KT 04/M07 A3008 RMK A01 T00431074  RH  042%=      5-min Rain = 0
KUM1 131750Z 36038G43KT 04/M08 A3008 RMK A01 T00431075  RH  042%=      5-min Rain = 0
KUM1 131751Z 35033G38KT 04/M08 A3007 RMK A01 T00421076  RH  042%=      5-min Rain = 0
KUM1 131752Z 36030G35KT 04/M08 A3007 RMK A01 T00411075  RH  042%=      5-min Rain = 0
KUM1 131753Z 00031KT 04/M08 A3008 RMK A01 T00411075  RH  042%=      5-min Rain = 0
KUM1 131754Z 36035G42KT 04/M08 A3008 RMK A01 T00421075  RH  042%=      5-min Rain = 0
KUM1 131755Z 35037G44KT 04/M08 A3007 RMK A01 T00411077  RH  042%=      5-min Rain = 0
KUM1 131756Z 00036G45KT 04/M08 A3008 RMK A01 T00411077  RH  042%=      5-min Rain = 0
KUM1 131757Z 36036G45KT 04/M08 A3008 RMK A01 T00401077  RH  042%=      5-min Rain = 0
KUM1 131758Z 36033G42KT 04/M08 A3008 RMK A01 T00401078  RH  042%=      5-min Rain = 0
KUM1 131759Z 35034G41KT 04/M08 A3008 RMK A01 T00401077  RH  042%=      5-min Rain = 0
KUM1 131800Z 00034G39KT 04/M08 A3008 RMK A01 T00401078  RH  042%=      5-min Rain = 0
KUM1 131801Z 36037G45KT 04/M08 A3008 RMK A01 T00401079  RH  042%=      5-min Rain = 0
KUM1 131802Z 36035G40KT 04/M08 A3008 RMK A01 T00391079  RH  042%=      5-min Rain = 0
KUM1 131803Z 36031G38KT 04/M08 A3008 RMK A01 T00391079  RH  042%=      5-min Rain = 0
KUM1 131804Z 36035KT 04/M08 A3008 RMK A01 T00391078  RH  042%=      5-min Rain = 0
KUM1 131805Z 00033KT 04/M08 A3008 RMK A01 T00391079  RH  042%=      5-min Rain = 0
KUM1 131806Z 36032KT 04/M08 A3008 RMK A01 T00381079  RH  042%=      5-min Rain = 0
KUM1 131807Z 36036G43KT 04/M08 A3008 RMK A01 T00381079  RH  042%=      5-min Rain = 0
KUM1 131808Z 00041G48KT 04/M08 A3008 RMK A01 T00381080  RH  042%=      5-min Rain = 0
KUM1 131809Z 36033G41KT 04/M08 A3008 RMK A01 T00371081  RH  042%=      5-min Rain = 0
KUM1 131810Z 36036G42KT 04/M08 A3008 RMK A01 T00371080  RH  042%=      5-min Rain = 0
KUM1 131811Z 00039G44KT 04/M08 A3008 RMK A01 T00371081  RH  042%=      5-min Rain = 0
KUM1 131812Z 00035G43KT 04/M08 A3008 RMK A01 T00371082  RH  042%=      5-min Rain = 0
KUM1 131813Z 35036G41KT 04/M08 A3008 RMK A01 T00361082  RH  042%=      5-min Rain = 0
KUM1 131814Z 36035G43KT 04/M08 A3008 RMK A01 T00361082  RH  042%=      5-min Rain = 0
KUM1 131815Z 00033G38KT 04/M08 A3008 RMK A01 T00361082  RH  042%=      5-min Rain = 0
KUM1 131816Z 01030G38KT 04/M08 A3008 RMK A01 T00371082  RH  042%=      5-min Rain = 0
KUM1 131817Z 00034G39KT 04/M08 A3008 RMK A01 T00371083  RH  041%=      5-min Rain = 0
KUM1 131818Z 00037KT 04/M08 A3008 RMK A01 T00371084  RH  041%=      5-min Rain = 0
KUM1 131819Z 00031KT 04/M08 A3008 RMK A01 T00371084  RH  041%=      5-min Rain = 0
KUM1 131820Z 00028KT 04/M08 A3008 RMK A01 T00371083  RH  041%=      5-min Rain = 0
KUM1 131821Z 00031G40KT 04/M08 A3008 RMK A01 T00371082  RH  041%=      5-min Rain = 0
KUM1 131822Z 36034G39KT 04/M08 A3008 RMK A01 T00381082  RH  041%=      5-min Rain = 0
KUM1 131823Z 36033KT 04/M08 A3008 RMK A01 T00381082  RH  041%=      5-min Rain = 0
KUM1 131824Z 00037G43KT 04/M08 A3008 RMK A01 T00381082  RH  041%=      5-min Rain = 0
KUM1 131825Z 00035G43KT 04/M08 A3008 RMK A01 T00371082  RH  041%=      5-min Rain = 0
KUM1 131826Z 00038KT 04/M08 A3008 RMK A01 T00371082  RH  041%=      5-min Rain = 0
KUM1 131827Z 36033G38KT 04/M08 A3008 RMK A01 T00371082  RH  041%=      5-min Rain = 0
KUM1 131828Z 01034G39KT 04/M08 A3008 RMK A01 T00371081  RH  042%=      5-min Rain = 0
KUM1 131829Z 36036G42KT 04/M08 A3008 RMK A01 T00371082  RH  041%=      5-min Rain = 0
KUM1 131830Z 01032G37KT 04/M08 A3008 RMK A01 T00381081  RH  041%=      5-min Rain = 0
KUM1 131831Z 35035G42KT 04/M08 A3008 RMK A01 T00381080  RH  042%=      5-min Rain = 0
KUM1 131832Z 00038G46KT 04/M08 A3008 RMK A01 T00391081  RH  041%=      5-min Rain = 0
KUM1 131833Z 00033G39KT 04/M08 A3008 RMK A01 T00391081  RH  041%=      5-min Rain = 0
KUM1 131834Z 36030G37KT 04/M08 A3008 RMK A01 T00391080  RH  042%=      5-min Rain = 0
KUM1 131835Z 00033G42KT 04/M08 A3008 RMK A01 T00391079  RH  042%=      5-min Rain = 0
KUM1 131836Z 00038G44KT 04/M08 A3007 RMK A01 T00391081  RH  041%=      5-min Rain = 0
KUM1 131837Z 01031G38KT 04/M08 A3008 RMK A01 T00391080  RH  041%=      5-min Rain = 0
KUM1 131838Z 00032G37KT 04/M08 A3007 RMK A01 T00391079  RH  042%=      5-min Rain = 0
KUM1 131839Z 00035G40KT 04/M08 A3007 RMK A01 T00391080  RH  041%=      5-min Rain = 0
KUM1 131840Z 00034G43KT 04/M08 A3007 RMK A01 T00401080  RH  041%=      5-min Rain = 0
KUM1 131841Z 36033G38KT 04/M08 A3007 RMK A01 T00401079  RH  041%=      5-min Rain = 0
KUM1 131842Z 35035G40KT 04/M08 A3007 RMK A01 T00411078  RH  042%=      5-min Rain = 0
KUM1 131843Z 36035KT 04/M08 A3007 RMK A01 T00411078  RH  042%=      5-min Rain = 0
KUM1 131844Z 36035G41KT 04/M08 A3007 RMK A01 T00411078  RH  042%=      5-min Rain = 0
KUM1 131845Z 36036G43KT 04/M08 A3007 RMK A01 T00411078  RH  041%=      5-min Rain = 0
KUM1 131846Z 01032KT 04/M08 A3007 RMK A01 T00421077  RH  042%=      5-min Rain = 0
KUM1 131847Z 00029G36KT 04/M08 A3007 RMK A01 T00421076  RH  042%=      5-min Rain = 0
KUM1 131848Z 00028G33KT 04/M07 A3007 RMK A01 T00441074  RH  042%=      5-min Rain = 0
KUM1 131849Z 00027G33KT 05/M07 A3007 RMK A01 T00451074  RH  042%=      5-min Rain = 0
KUM1 131850Z 36030G37KT 05/M07 A3007 RMK A01 T00451074  RH  042%=      5-min Rain = 0
KUM1 131851Z 00029G34KT 05/M07 A3007 RMK A01 T00451074  RH  042%=      5-min Rain = 0
KUM1 131852Z 00027KT 05/M07 A3007 RMK A01 T00461074  RH  042%=      5-min Rain = 0
KUM1 131853Z 36034G40KT 05/M07 A3007 RMK A01 T00461073  RH  042%=      5-min Rain = 0
KUM1 131854Z 00037KT 05/M07 A3007 RMK A01 T00471074  RH  041%=      5-min Rain = 0
KUM1 131855Z 00036G42KT 05/M07 A3007 RMK A01 T00471074  RH  041%=      5-min Rain = 0
KUM1 131856Z 00036G43KT 05/M08 A3007 RMK A01 T00471075  RH  041%=      5-min Rain = 0
KUM1 131857Z 00038KT 05/M08 A3007 RMK A01 T00471076  RH  041%=      5-min Rain = 0
KUM1 131858Z 01038KT 05/M08 A3007 RMK A01 T00461077  RH  040%=      5-min Rain = 0
KUM1 131859Z 00036KT 05/M08 A3007 RMK A01 T00461078  RH  040%=      5-min Rain = 0
KUM1 131900Z 01032G42KT 05/M08 A3007 RMK A01 T00461077  RH  040%=      5-min Rain = 0
KUM1 131901Z 00031G39KT 05/M08 A3007 RMK A01 T00471075  RH  041%=      5-min Rain = 0
KUM1 131902Z 36036G42KT 05/M08 A3007 RMK A01 T00481076  RH  040%=      5-min Rain = 0
KUM1 131903Z 36036G44KT 05/M08 A3007 RMK A01 T00481077  RH  040%=      5-min Rain = 0
KUM1 131904Z 00032G39KT 05/M08 A3007 RMK A01 T00471077  RH  040%=      5-min Rain = 0
KUM1 131905Z 35032G41KT 05/M08 A3007 RMK A01 T00471076  RH  040%=      5-min Rain = 0
KUM1 131906Z 36034G42KT 05/M08 A3007 RMK A01 T00481078  RH  040%=      5-min Rain = 0
KUM1 131907Z 00034G41KT 05/M08 A3007 RMK A01 T00481079  RH  039%=      5-min Rain = 0
KUM1 131908Z 00034KT 05/M08 A3007 RMK A01 T00501078  RH  039%=      5-min Rain = 0
KUM1 131909Z 35036KT 05/M08 A3007 RMK A01 T00501079  RH  039%=      5-min Rain = 0
KUM1 131910Z 01029G34KT 05/M08 A3007 RMK A01 T00511079  RH  039%=      5-min Rain = 0
KUM1 131911Z 00034G42KT 05/M08 A3007 RMK A01 T00521077  RH  039%=      5-min Rain = 0
KUM1 131912Z 36036G44KT 05/M08 A3007 RMK A01 T00521079  RH  038%=      5-min Rain = 0
KUM1 131913Z 35035G40KT 05/M08 A3006 RMK A01 T00521079  RH  038%=      5-min Rain = 0
KUM1 131914Z 36038G43KT 05/M08 A3007 RMK A01 T00531081  RH  038%=      5-min Rain = 0
KUM1 131915Z 00033G38KT 05/M08 A3007 RMK A01 T00531081  RH  037%=      5-min Rain = 0
KUM1 131916Z 36035G40KT 05/M08 A3007 RMK A01 T00531080  RH  038%=      5-min Rain = 0
KUM1 131917Z 00036KT 05/M08 A3007 RMK A01 T00541079  RH  038%=      5-min Rain = 0
KUM1 131918Z 36034G40KT 05/M08 A3006 RMK A01 T00541080  RH  038%=      5-min Rain = 0
KUM1 131919Z 36033G41KT 05/M08 A3007 RMK A01 T00541079  RH  038%=      5-min Rain = 0
KUM1 131920Z 00035KT 05/M08 A3007 RMK A01 T00541079  RH  038%=      5-min Rain = 0
KUM1 131921Z 00036G43KT 06/M08 A3006 RMK A01 T00551080  RH  037%=      5-min Rain = 0
KUM1 131922Z 00033G38KT 06/M08 A3007 RMK A01 T00561078  RH  037%=      5-min Rain = 0
KUM1 131923Z 00032G39KT 06/M08 A3006 RMK A01 T00571078  RH  037%=      5-min Rain = 0
KUM1 131924Z 00039G44KT 06/M08 A3006 RMK A01 T00581079  RH  037%=      5-min Rain = 0
KUM1 131925Z 36040KT 06/M08 A3006 RMK A01 T00561084  RH  036%=      5-min Rain = 0
KUM1 131926Z 00035G40KT 06/M08 A3006 RMK A01 T00551084  RH  036%=      5-min Rain = 0
KUM1 131927Z 35040G47KT 06/M08 A3006 RMK A01 T00561084  RH  036%=      5-min Rain = 0
KUM1 131928Z 35036G45KT 06/M09 A3006 RMK A01 T00561085  RH  036%=      5-min Rain = 0
KUM1 131929Z 00040G45KT 06/M08 A3006 RMK A01 T00571084  RH  036%=      5-min Rain = 0
KUM1 131930Z 35040G47KT 06/M09 A3006 RMK A01 T00571086  RH  035%=      5-min Rain = 0
KUM1 131931Z 35040KT 06/M09 A3006 RMK A01 T00571088  RH  034%=      5-min Rain = 0
KUM1 131932Z 36040G46KT 06/M09 A3006 RMK A01 T00571088  RH  034%=      5-min Rain = 0
KUM1 131933Z 00035G42KT 06/M09 A3006 RMK A01 T00581088  RH  034%=      5-min Rain = 0
KUM1 131934Z 01035G43KT 06/M09 A3007 RMK A01 T00591087  RH  034%=      5-min Rain = 0
KUM1 131935Z 01034G42KT 06/M09 A3006 RMK A01 T00601089  RH  034%=      5-min Rain = 0
KUM1 131936Z 36035KT 06/M09 A3006 RMK A01 T00601089  RH  033%=      5-min Rain = 0
KUM1 131937Z 36037KT 06/M09 A3006 RMK A01 T00601090  RH  033%=      5-min Rain = 0
KUM1 131938Z 35041KT 06/M09 A3006 RMK A01 T00591089  RH  033%=      5-min Rain = 0
KUM1 131939Z 36035G42KT 06/M09 A3006 RMK A01 T00591089  RH  034%=      5-min Rain = 0
KUM1 131940Z 36037G44KT 06/M09 A3006 RMK A01 T00591089  RH  034%=      5-min Rain = 0
KUM1 131941Z 00040G46KT 06/M09 A3006 RMK A01 T00591093  RH  033%=      5-min Rain = 0
KUM1 131942Z 35039G44KT 06/M09 A3006 RMK A01 T00581094  RH  032%=      5-min Rain = 0
KUM1 131943Z 36038G46KT 06/M09 A3006 RMK A01 T00581093  RH  033%=      5-min Rain = 0
KUM1 131944Z 35031G36KT 06/M09 A3006 RMK A01 T00581092  RH  033%=      5-min Rain = 0
KUM1 131945Z 36037G44KT 06/M09 A3007 RMK A01 T00591091  RH  033%=      5-min Rain = 0
KUM1 131946Z 00037KT 06/M09 A3006 RMK A01 T00591093  RH  033%=      5-min Rain = 0
KUM1 131947Z 35036G44KT 06/M09 A3006 RMK A01 T00581094  RH  033%=      5-min Rain = 0
KUM1 131948Z 36034G39KT 06/M09 A3006 RMK A01 T00581093  RH  033%=      5-min Rain = 0
KUM1 131949Z 35034G44KT 06/M09 A3006 RMK A01 T00601091  RH  033%=      5-min Rain = 0
KUM1 131950Z 35035G40KT 06/M09 A3006 RMK A01 T00611091  RH  033%=      5-min Rain = 0
KUM1 131951Z 36037G42KT 06/M09 A3006 RMK A01 T00611092  RH  033%=      5-min Rain = 0
KUM1 131952Z 36036KT 06/M09 A3006 RMK A01 T00611092  RH  032%=      5-min Rain = 0
KUM1 131953Z 00041G47KT 06/M09 A3006 RMK A01 T00621093  RH  032%=      5-min Rain = 0
KUM1 131954Z 00039G45KT 06/M10 A3006 RMK A01 T00621097  RH  031%=      5-min Rain = 0
KUM1 131955Z 01041G46KT 06/M10 A3007 RMK A01 T00621098  RH  031%=      5-min Rain = 0
KUM1 131956Z 01042KT 06/M10 A3007 RMK A01 T00621099  RH  030%=      5-min Rain = 0
KUM1 131957Z 36036G43KT 06/M10 A3007 RMK A01 T00631099  RH  030%=      5-min Rain = 0
KUM1 131958Z 00038KT 06/M10 A3007 RMK A01 T00631095  RH  031%=      5-min Rain = 0
KUM1 131959Z 36038KT 06/M10 A3007 RMK A01 T00631098  RH  030%=      5-min Rain = 0
KUM1 132000Z 35039G46KT 06/M10 A3007 RMK A01 T00641097  RH  030%=      5-min Rain = 0
KUM1 132001Z 35037KT 07/M10 A3007 RMK A01 T00651098  RH  030%=      5-min Rain = 0
KUM1 132002Z 36036G42KT 07/M10 A3007 RMK A01 T00661098  RH  030%=      5-min Rain = 0
KUM1 132003Z 36036G43KT 07/M10 A3007 RMK A01 T00651098  RH  030%=      5-min Rain = 0
KUM1 132004Z 36032G37KT 07/M10 A3007 RMK A01 T00651097  RH  030%=      5-min Rain = 0
KUM1 132005Z 35036KT 07/M10 A3007 RMK A01 T00651097  RH  030%=      5-min Rain = 0
KUM1 132006Z 35037KT 06/M10 A3006 RMK A01 T00641098  RH  030%=      5-min Rain = 0
KUM1 132007Z 36030G37KT 07/M10 A3007 RMK A01 T00661097  RH  030%=      5-min Rain = 0
KUM1 132008Z 35033G38KT 07/M09 A3006 RMK A01 T00691093  RH  030%=      5-min Rain = 0
KUM1 132009Z 35033G40KT 07/M10 A3007 RMK A01 T00701096  RH  030%=      5-min Rain = 0
KUM1 132010Z 00035G42KT 07/M10 A3007 RMK A01 T00701098  RH  029%=      5-min Rain = 0
KUM1 132011Z 01039G46KT 07/M10 A3007 RMK A01 T00701101  RH  029%=      5-min Rain = 0
KUM1 132012Z 01037G42KT 07/M11 A3007 RMK A01 T00681105  RH  028%=      5-min Rain = 0
KUM1 132013Z 01031G37KT 07/M10 A3007 RMK A01 T00671104  RH  028%=      5-min Rain = 0
KUM1 132014Z 00029G34KT 07/M10 A3007 RMK A01 T00681101  RH  029%=      5-min Rain = 0
KUM1 132015Z 00034G40KT 07/M10 A3007 RMK A01 T00701100  RH  029%=      5-min Rain = 0
KUM1 132016Z 36039G45KT 07/M10 A3007 RMK A01 T00701100  RH  029%=      5-min Rain = 0
KUM1 132017Z 36036G41KT 07/M10 A3007 RMK A01 T00671103  RH  028%=      5-min Rain = 0
KUM1 132018Z 01042G50KT 07/M11 A3007 RMK A01 T00661106  RH  028%=      5-min Rain = 0
KUM1 132019Z 36037G44KT 07/M11 A3007 RMK A01 T00651109  RH  028%=      5-min Rain = 0
KUM1 132020Z 00037G44KT 07/M11 A3007 RMK A01 T00661108  RH  028%=      5-min Rain = 0
KUM1 132021Z 00037G42KT 07/M11 A3007 RMK A01 T00661110  RH  027%=      5-min Rain = 0
KUM1 132022Z 00037G42KT 07/M11 A3007 RMK A01 T00661110  RH  027%=      5-min Rain = 0
KUM1 132023Z 01037KT 07/M11 A3007 RMK A01 T00661110  RH  027%=      5-min Rain = 0
KUM1 132024Z 00037G44KT 07/M11 A3007 RMK A01 T00661110  RH  027%=      5-min Rain = 0
KUM1 132025Z 00035G41KT 07/M11 A3007 RMK A01 T00661109  RH  027%=      5-min Rain = 0
KUM1 132026Z 36035G42KT 07/M11 A3007 RMK A01 T00661109  RH  027%=      5-min Rain = 0
KUM1 132027Z 01034KT 07/M11 A3007 RMK A01 T00661110  RH  027%=      5-min Rain = 0
KUM1 132028Z 01036G42KT 07/M11 A3007 RMK A01 T00661110  RH  027%=      5-min Rain = 0
KUM1 132029Z 01034G42KT 07/M11 A3007 RMK A01 T00661110  RH  027%=      5-min Rain = 0
KUM1 132030Z 01038G46KT 07/M11 A3007 RMK A01 T00651111  RH  027%=      5-min Rain = 0
KUM1 132031Z 01039KT 07/M11 A3007 RMK A01 T00651111  RH  027%=      5-min Rain = 0
KUM1 132032Z 01035KT 06/M11 A3007 RMK A01 T00641112  RH  027%=      5-min Rain = 0
KUM1 132033Z 01032G37KT 07/M11 A3007 RMK A01 T00651108  RH  028%=      5-min Rain = 0
KUM1 132034Z 01033G39KT 07/M11 A3007 RMK A01 T00661107  RH  028%=      5-min Rain = 0
KUM1 132035Z 01035G43KT 07/M11 A3007 RMK A01 T00671108  RH  027%=      5-min Rain = 0
KUM1 132036Z 00035G44KT 07/M11 A3007 RMK A01 T00671109  RH  027%=      5-min Rain = 0
KUM1 132037Z 00031G37KT 07/M11 A3007 RMK A01 T00681107  RH  027%=      5-min Rain = 0
KUM1 132038Z 00033G40KT 07/M10 A3007 RMK A01 T00711103  RH  028%=      5-min Rain = 0
KUM1 132039Z 00033G38KT 07/M11 A3007 RMK A01 T00721106  RH  027%=      5-min Rain = 0
KUM1 132040Z 36035KT 07/M11 A3007 RMK A01 T00711107  RH  027%=      5-min Rain = 0
KUM1 132041Z 00035G40KT 07/M11 A3007 RMK A01 T00691109  RH  027%=      5-min Rain = 0
KUM1 132042Z 01034G39KT 07/M11 A3007 RMK A01 T00691106  RH  027%=      5-min Rain = 0
KUM1 132043Z 01031G36KT 07/M11 A3007 RMK A01 T00691105  RH  028%=      5-min Rain = 0
KUM1 132044Z 00038G44KT 07/M10 A3007 RMK A01 T00691104  RH  028%=      5-min Rain = 0
KUM1 132045Z 01036G43KT 07/M11 A3007 RMK A01 T00691108  RH  027%=      5-min Rain = 0
KUM1 132046Z 01036KT 07/M11 A3007 RMK A01 T00691108  RH  027%=      5-min Rain = 0
KUM1 132047Z 00031KT 07/M11 A3007 RMK A01 T00691109  RH  027%=      5-min Rain = 0
KUM1 132048Z 00032G39KT 07/M11 A3007 RMK A01 T00701106  RH  027%=      5-min Rain = 0
KUM1 132049Z 00035G41KT 07/M11 A3007 RMK A01 T00711107  RH  027%=      5-min Rain = 0
KUM1 132050Z 00036G41KT 07/M11 A3007 RMK A01 T00701111  RH  026%=      5-min Rain = 0
KUM1 132051Z 00033G40KT 07/M11 A3007 RMK A01 T00701109  RH  027%=      5-min Rain = 0
KUM1 132052Z 00039G45KT 07/M11 A3007 RMK A01 T00701111  RH  026%=      5-min Rain = 0
KUM1 132053Z 01036G41KT 07/M11 A3007 RMK A01 T00691112  RH  026%=      5-min Rain = 0
KUM1 132054Z 00034G40KT 07/M11 A3007 RMK A01 T00691111  RH  026%=      5-min Rain = 0
KUM1 132055Z 01037G44KT 07/M11 A3007 RMK A01 T00691111  RH  026%=      5-min Rain = 0
KUM1 132056Z 01037G43KT 07/M11 A3007 RMK A01 T00691112  RH  026%=      5-min Rain = 0
KUM1 132057Z 00035G40KT 07/M11 A3007 RMK A01 T00691114  RH  026%=      5-min Rain = 0
KUM1 132058Z 00037G45KT 07/M11 A3007 RMK A01 T00691113  RH  026%=      5-min Rain = 0
KUM1 132059Z 00035G43KT 07/M11 A3007 RMK A01 T00691114  RH  026%=      5-min Rain = 0
KUM1 132100Z 01037G42KT 07/M11 A3007 RMK A01 T00681112  RH  026%=      5-min Rain = 0
KUM1 132101Z 00037G42KT 07/M11 A3007 RMK A01 T00681111  RH  026%=      5-min Rain = 0
KUM1 132102Z 00037KT 07/M11 A3007 RMK A01 T00681112  RH  026%=      5-min Rain = 0
KUM1 132103Z 01038KT 07/M11 A3007 RMK A01 T00671112  RH  026%=      5-min Rain = 0
KUM1 132104Z 01033KT 07/M11 A3007 RMK A01 T00661113  RH  027%=      5-min Rain = 0
KUM1 132105Z 01031G39KT 07/M11 A3007 RMK A01 T00671110  RH  027%=      5-min Rain = 0
KUM1 132106Z 01037G45KT 07/M11 A3007 RMK A01 T00681111  RH  026%=      5-min Rain = 0
KUM1 132107Z 01036G41KT 07/M11 A3007 RMK A01 T00691114  RH  026%=      5-min Rain = 0
KUM1 132108Z 01038G43KT 07/M12 A3007 RMK A01 T00691115  RH  026%=      5-min Rain = 0
KUM1 132109Z 00037G42KT 07/M12 A3007 RMK A01 T00691116  RH  025%=      5-min Rain = 0
KUM1 132110Z 00034KT 07/M12 A3007 RMK A01 T00681115  RH  026%=      5-min Rain = 0
KUM1 132111Z 01034G39KT 07/M11 A3007 RMK A01 T00681112  RH  026%=      5-min Rain = 0
KUM1 132112Z 01032G37KT 07/M11 A3007 RMK A01 T00681112  RH  026%=      5-min Rain = 0
KUM1 132113Z 00034G39KT 07/M11 A3007 RMK A01 T00691111  RH  027%=      5-min Rain = 0
KUM1 132114Z 36036G41KT 07/M11 A3007 RMK A01 T00691112  RH  026%=      5-min Rain = 0
KUM1 132115Z 36039G44KT 07/M11 A3007 RMK A01 T00691113  RH  026%=      5-min Rain = 0
KUM1 132116Z 35039G46KT 07/M12 A3006 RMK A01 T00691115  RH  026%=      5-min Rain = 0
KUM1 132117Z 00040G46KT 07/M12 A3007 RMK A01 T00681116  RH  026%=      5-min Rain = 0
KUM1 132118Z 00038G45KT 07/M12 A3007 RMK A01 T00681116  RH  026%=      5-min Rain = 0
KUM1 132119Z 00038KT 07/M12 A3007 RMK A01 T00691115  RH  026%=      5-min Rain = 0
KUM1 132120Z 00036KT 07/M12 A3007 RMK A01 T00681115  RH  026%=      5-min Rain = 0
KUM1 132121Z 00036G41KT 07/M12 A3007 RMK A01 T00681115  RH  026%=      5-min Rain = 0
KUM1 132122Z 00034KT 07/M11 A3007 RMK A01 T00681113  RH  026%=      5-min Rain = 0
KUM1 132123Z 36033G40KT 07/M11 A3007 RMK A01 T00681113  RH  026%=      5-min Rain = 0
KUM1 132124Z 00036KT 07/M11 A3007 RMK A01 T00691111  RH  026%=      5-min Rain = 0
KUM1 132125Z 35036KT 07/M11 A3007 RMK A01 T00671113  RH  026%=      5-min Rain = 0
KUM1 132126Z 00031G39KT 07/M11 A3007 RMK A01 T00671112  RH  027%=      5-min Rain = 0
KUM1 132127Z 00031G37KT 07/M11 A3007 RMK A01 T00681112  RH  027%=      5-min Rain = 0
KUM1 132128Z 01032G38KT 07/M11 A3008 RMK A01 T00691111  RH  027%=      5-min Rain = 0
KUM1 132129Z 01036G41KT 07/M11 A3007 RMK A01 T00691112  RH  026%=      5-min Rain = 0
KUM1 132130Z 01033G38KT 07/M11 A3007 RMK A01 T00681114  RH  026%=      5-min Rain = 0
KUM1 132131Z 01029G40KT 07/M11 A3007 RMK A01 T00681112  RH  026%=      5-min Rain = 0
KUM1 132132Z 00034G40KT 07/M11 A3007 RMK A01 T00691112  RH  026%=      5-min Rain = 0
KUM1 132133Z 01034KT 07/M11 A3008 RMK A01 T00691113  RH  026%=      5-min Rain = 0
KUM1 132134Z 35030G38KT 07/M11 A3007 RMK A01 T00691111  RH  026%=      5-min Rain = 0
KUM1 132135Z 35037G42KT 07/M11 A3007 RMK A01 T00691110  RH  027%=      5-min Rain = 0
KUM1 132136Z 35036G41KT 07/M11 A3007 RMK A01 T00681112  RH  026%=      5-min Rain = 0
KUM1 132137Z 35035G42KT 07/M11 A3007 RMK A01 T00671113  RH  026%=      5-min Rain = 0
KUM1 132138Z 36030G36KT 07/M11 A3007 RMK A01 T00671111  RH  027%=      5-min Rain = 0
KUM1 132139Z 36031G39KT 07/M11 A3007 RMK A01 T00681110  RH  027%=      5-min Rain = 0
KUM1 132140Z 36038G43KT 07/M11 A3007 RMK A01 T00681112  RH  026%=      5-min Rain = 0
KUM1 132141Z 00037KT 07/M12 A3008 RMK A01 T00681115  RH  026%=      5-min Rain = 0
KUM1 132142Z 36036KT 07/M11 A3007 RMK A01 T00671114  RH  026%=      5-min Rain = 0
KUM1 132143Z 00033KT 07/M12 A3008 RMK A01 T00661115  RH  026%=      5-min Rain = 0
KUM1 132144Z 00035G42KT 07/M11 A3008 RMK A01 T00661113  RH  026%=      5-min Rain = 0
KUM1 132145Z 35034G39KT 07/M11 A3007 RMK A01 T00661114  RH  026%=      5-min Rain = 0
KUM1 132146Z 35038KT 07/M12 A3008 RMK A01 T00661115  RH  026%=      5-min Rain = 0
KUM1 132147Z 36036G41KT 07/M12 A3007 RMK A01 T00661116  RH  026%=      5-min Rain = 0
KUM1 132148Z 36037KT 07/M12 A3008 RMK A01 T00651116  RH  026%=      5-min Rain = 0
KUM1 132149Z 00034KT 07/M12 A3007 RMK A01 T00651115  RH  026%=      5-min Rain = 0
KUM1 132150Z 01036KT 07/M11 A3008 RMK A01 T00661114  RH  026%=      5-min Rain = 0
KUM1 132151Z 00027G33KT 07/M11 A3008 RMK A01 T00661113  RH  027%=      5-min Rain = 0
KUM1 132152Z 01032G37KT 07/M11 A3008 RMK A01 T00661112  RH  027%=      5-min Rain = 0
KUM1 132153Z 01037G43KT 07/M11 A3008 RMK A01 T00661113  RH  026%=      5-min Rain = 0
KUM1 132154Z 36038KT 07/M12 A3008 RMK A01 T00661116  RH  026%=      5-min Rain = 0
KUM1 132155Z 36035G40KT 07/M12 A3008 RMK A01 T00661116  RH  026%=      5-min Rain = 0
KUM1 132156Z 00035KT 07/M12 A3008 RMK A01 T00651116  RH  026%=      5-min Rain = 0
KUM1 132157Z 36035G41KT 07/M12 A3008 RMK A01 T00651115  RH  026%=      5-min Rain = 0
KUM1 132158Z 36036G42KT 07/M12 A3008 RMK A01 T00651116  RH  026%=      5-min Rain = 0
KUM1 132159Z 35032G42KT 07/M12 A3008 RMK A01 T00651117  RH  026%=      5-min Rain = 0
KUM1 132200Z 00035G40KT 07/M12 A3008 RMK A01 T00651117  RH  026%=      5-min Rain = 0
KUM1 132201Z 01030G36KT 07/M12 A3008 RMK A01 T00651118  RH  026%=      5-min Rain = 0
KUM1 132202Z 00028G36KT 07/M12 A3008 RMK A01 T00651116  RH  026%=      5-min Rain = 0
KUM1 132203Z 00036G41KT 07/M12 A3008 RMK A01 T00661117  RH  026%=      5-min Rain = 0
KUM1 132204Z 00035G40KT 07/M12 A3008 RMK A01 T00651119  RH  025%=      5-min Rain = 0
KUM1 132205Z 36034G41KT 06/M12 A3008 RMK A01 T00641121  RH  025%=      5-min Rain = 0
KUM1 132206Z 00035G40KT 06/M12 A3008 RMK A01 T00641120  RH  025%=      5-min Rain = 0
KUM1 132207Z 01027G33KT 06/M12 A3008 RMK A01 T00641119  RH  026%=      5-min Rain = 0
KUM1 132208Z 00029G35KT 06/M12 A3008 RMK A01 T00641117  RH  026%=      5-min Rain = 0
KUM1 132209Z 36033G39KT 06/M12 A3008 RMK A01 T00641118  RH  026%=      5-min Rain = 0
KUM1 132210Z 00032KT 06/M12 A3008 RMK A01 T00641118  RH  026%=      5-min Rain = 0
KUM1 132211Z 00033G41KT 06/M12 A3008 RMK A01 T00641118  RH  026%=      5-min Rain = 0
KUM1 132212Z 00034G40KT 06/M12 A3009 RMK A01 T00641119  RH  026%=      5-min Rain = 0
KUM1 132213Z 01030G37KT 06/M12 A3009 RMK A01 T00641119  RH  026%=      5-min Rain = 0
KUM1 132214Z 00030G36KT 06/M12 A3009 RMK A01 T00641117  RH  026%=      5-min Rain = 0
KUM1 132215Z 00036G43KT 06/M12 A3008 RMK A01 T00641118  RH  026%=      5-min Rain = 0
KUM1 132216Z 36032G38KT 06/M12 A3009 RMK A01 T00641119  RH  026%=      5-min Rain = 0
KUM1 132217Z 00031G37KT 06/M12 A3008 RMK A01 T00641118  RH  026%=      5-min Rain = 0
KUM1 132218Z 00032G37KT 06/M12 A3008 RMK A01 T00641118  RH  026%=      5-min Rain = 0
KUM1 132219Z 36034KT 06/M12 A3009 RMK A01 T00631119  RH  026%=      5-min Rain = 0
KUM1 132220Z 36031KT 06/M12 A3009 RMK A01 T00631119  RH  026%=      5-min Rain = 0
KUM1 132221Z 36034G40KT 06/M12 A3009 RMK A01 T00631118  RH  026%=      5-min Rain = 0
KUM1 132222Z 00034KT 06/M12 A3009 RMK A01 T00631119  RH  026%=      5-min Rain = 0
KUM1 132223Z 00028G33KT 06/M12 A3009 RMK A01 T00621119  RH  026%=      5-min Rain = 0
KUM1 132224Z 00033KT 06/M12 A3009 RMK A01 T00621118  RH  026%=      5-min Rain = 0
KUM1 132225Z 00033G38KT 06/M12 A3009 RMK A01 T00621121  RH  026%=      5-min Rain = 0
KUM1 132226Z 00030G38KT 06/M12 A3009 RMK A01 T00621121  RH  025%=      5-min Rain = 0
KUM1 132227Z 36028KT 06/M12 A3009 RMK A01 T00621119  RH  026%=      5-min Rain = 0
KUM1 132228Z 35029G35KT 06/M12 A3009 RMK A01 T00621119  RH  026%=      5-min Rain = 0
KUM1 132229Z 36028KT 06/M12 A3009 RMK A01 T00621120  RH  026%=      5-min Rain = 0
KUM1 132230Z 36028G33KT 06/M12 A3009 RMK A01 T00621120  RH  026%=      5-min Rain = 0
KUM1 132231Z 00030G38KT 06/M12 A3009 RMK A01 T00621121  RH  026%=      5-min Rain = 0
KUM1 132232Z 36035KT 06/M12 A3009 RMK A01 T00621124  RH  025%=      5-min Rain = 0
KUM1 132233Z 35031G39KT 06/M13 A3009 RMK A01 T00611125  RH  025%=      5-min Rain = 0
KUM1 132234Z 35034G39KT 06/M13 A3009 RMK A01 T00611125  RH  025%=      5-min Rain = 0
KUM1 132235Z 36029G34KT 06/M13 A3009 RMK A01 T00611125  RH  025%=      5-min Rain = 0
KUM1 132236Z 35031KT 06/M12 A3009 RMK A01 T00601124  RH  025%=      5-min Rain = 0
KUM1 132237Z 36032G39KT 06/M12 A3009 RMK A01 T00601124  RH  025%=      5-min Rain = 0
KUM1 132238Z 35032G40KT 06/M12 A3009 RMK A01 T00601123  RH  025%=      5-min Rain = 0
KUM1 132239Z 35029KT 06/M12 A3009 RMK A01 T00601124  RH  025%=      5-min Rain = 0
KUM1 132240Z 36031KT 06/M12 A3009 RMK A01 T00601123  RH  026%=      5-min Rain = 0
KUM1 132241Z 35033G38KT 06/M12 A3009 RMK A01 T00601122  RH  026%=      5-min Rain = 0
KUM1 132242Z 00032G39KT 06/M12 A3009 RMK A01 T00591122  RH  026%=      5-min Rain = 0
KUM1 132243Z 35029G34KT 06/M12 A3009 RMK A01 T00591122  RH  026%=      5-min Rain = 0
KUM1 132244Z 35031G36KT 06/M12 A3009 RMK A01 T00591122  RH  026%=      5-min Rain = 0
KUM1 132245Z 36035G40KT 06/M13 A3009 RMK A01 T00591125  RH  025%=      5-min Rain = 0
KUM1 132246Z 36028G35KT 06/M13 A3009 RMK A01 T00591125  RH  025%=      5-min Rain = 0
KUM1 132247Z 35033G38KT 06/M13 A3009 RMK A01 T00581125  RH  026%=      5-min Rain = 0
KUM1 132248Z 35032G39KT 06/M13 A3009 RMK A01 T00571125  RH  026%=      5-min Rain = 0
KUM1 132249Z 35030G37KT 06/M13 A3009 RMK A01 T00571125  RH  026%=      5-min Rain = 0
KUM1 132250Z 36034G40KT 06/M13 A3009 RMK A01 T00571125  RH  026%=      5-min Rain = 0
KUM1 132251Z 35032G39KT 06/M13 A3009 RMK A01 T00571126  RH  026%=      5-min Rain = 0
KUM1 132252Z 35032G37KT 06/M13 A3009 RMK A01 T00561127  RH  025%=      5-min Rain = 0
KUM1 132253Z 36033KT 06/M13 A301 RMK A01 T00561127  RH  025%=      5-min Rain = 0
KUM1 132254Z 36032G37KT 06/M13 A301 RMK A01 T00561126  RH  025%=      5-min Rain = 0
KUM1 132255Z 36032G38KT 06/M13 A301 RMK A01 T00561125  RH  026%=      5-min Rain = 0
KUM1 132256Z 36035G40KT 06/M13 A301 RMK A01 T00561126  RH  026%=      5-min Rain = 0
KUM1 132257Z 00032KT 06/M13 A301 RMK A01 T00561127  RH  025%=      5-min Rain = 0
KUM1 132258Z 35030G36KT 06/M13 A301 RMK A01 T00561126  RH  026%=      5-min Rain = 0
KUM1 132259Z 36027G33KT 06/M13 A301 RMK A01 T00551126  RH  026%=      5-min Rain = 0
KUM1 132300Z 36026KT 05/M13 A301 RMK A01 T00541126  RH  026%=      5-min Rain = 0
KUM1 132301Z 00025G30KT 05/M13 A301 RMK A01 T00541125  RH  026%=      5-min Rain = 0
KUM1 132302Z 00029G35KT 05/M12 A301 RMK A01 T00531124  RH  026%=      5-min Rain = 0
KUM1 132303Z 36028G34KT 05/M12 A301 RMK A01 T00531124  RH  026%=      5-min Rain = 0
KUM1 132304Z 00025KT 05/M12 A301 RMK A01 T00531123  RH  027%=      5-min Rain = 0
KUM1 132305Z 00027G32KT 05/M12 A301 RMK A01 T00521123  RH  027%=      5-min Rain = 0
KUM1 132306Z 00033KT 05/M12 A301 RMK A01 T00521124  RH  027%=      5-min Rain = 0
KUM1 132307Z 00031KT 05/M13 A301 RMK A01 T00521125  RH  027%=      5-min Rain = 0
KUM1 132308Z 36027G35KT 05/M12 A301 RMK A01 T00521124  RH  027%=      5-min Rain = 0
KUM1 132309Z 36030G35KT 05/M12 A301 RMK A01 T00511124  RH  027%=      5-min Rain = 0
KUM1 132310Z 36025KT 05/M12 A301 RMK A01 T00511124  RH  027%=      5-min Rain = 0
KUM1 132311Z 00025KT 05/M12 A301 RMK A01 T00511123  RH  027%=      5-min Rain = 0
KUM1 132312Z 36027KT 05/M12 A301 RMK A01 T00501122  RH  027%=      5-min Rain = 0
KUM1 132313Z 36028G34KT 05/M12 A301 RMK A01 T00501122  RH  027%=      5-min Rain = 0
KUM1 132314Z 36027KT 05/M12 A301 RMK A01 T00501122  RH  027%=      5-min Rain = 0
KUM1 132315Z 36030G36KT 05/M12 A301 RMK A01 T00501123  RH  027%=      5-min Rain = 0
KUM1 132316Z 00030KT 05/M12 A301 RMK A01 T00491123  RH  027%=      5-min Rain = 0
KUM1 132317Z 35025KT 05/M12 A301 RMK A01 T00501123  RH  027%=      5-min Rain = 0
KUM1 132318Z 35025KT 05/M12 A301 RMK A01 T00491123  RH  028%=      5-min Rain = 0
KUM1 132319Z 36024KT 05/M12 A301 RMK A01 T00481122  RH  028%=      5-min Rain = 0
KUM1 132320Z 36026KT 05/M12 A301 RMK A01 T00471122  RH  028%=      5-min Rain = 0
KUM1 132321Z 36024G29KT 05/M12 A301 RMK A01 T00471124  RH  028%=      5-min Rain = 0
KUM1 132322Z 35029G37KT 05/M12 A301 RMK A01 T00471124  RH  028%=      5-min Rain = 0
KUM1 132323Z 36028KT 05/M13 A301 RMK A01 T00471125  RH  028%=      5-min Rain = 0
KUM1 132324Z 00029G36KT 05/M13 A301 RMK A01 T00471125  RH  028%=      5-min Rain = 0
KUM1 132325Z 00030G36KT 05/M13 A301 RMK A01 T00471125  RH  028%=      5-min Rain = 0
KUM1 132326Z 36030KT 05/M13 A301 RMK A01 T00471125  RH  028%=      5-min Rain = 0
KUM1 132327Z 36031G37KT 05/M13 A301 RMK A01 T00471125  RH  028%=      5-min Rain = 0
KUM1 132328Z 36026KT 05/M13 A301 RMK A01 T00471125  RH  028%=      5-min Rain = 0
KUM1 132329Z 36031G38KT 05/M13 A301 RMK A01 T00451125  RH  028%=      5-min Rain = 0
KUM1 132330Z 35033KT 05/M13 A301 RMK A01 T00451125  RH  028%=      5-min Rain = 0
KUM1 132331Z 36031G37KT 05/M13 A301 RMK A01 T00461125  RH  028%=      5-min Rain = 0
KUM1 132332Z 35029KT 05/M13 A301 RMK A01 T00461126  RH  028%=      5-min Rain = 0
KUM1 132333Z 35027KT 05/M13 A3011 RMK A01 T00461125  RH  028%=      5-min Rain = 0
KUM1 132334Z 35027G32KT 04/M13 A3011 RMK A01 T00441125  RH  028%=      5-min Rain = 0
KUM1 132335Z 35026KT 04/M12 A3011 RMK A01 T00431124  RH  028%=      5-min Rain = 0
KUM1 132336Z 35024G30KT 04/M12 A3011 RMK A01 T00431124  RH  028%=      5-min Rain = 0
KUM1 132337Z 35028G34KT 04/M12 A3011 RMK A01 T00421124  RH  029%=      5-min Rain = 0
KUM1 132338Z 35024G29KT 04/M12 A3011 RMK A01 T00421124  RH  029%=      5-min Rain = 0
KUM1 132339Z 35028KT 04/M12 A3011 RMK A01 T00421124  RH  029%=      5-min Rain = 0
KUM1 132340Z 35029G35KT 04/M12 A3011 RMK A01 T00421124  RH  029%=      5-min Rain = 0
KUM1 132341Z 35028KT 04/M12 A3011 RMK A01 T00431123  RH  029%=      5-min Rain = 0
KUM1 132342Z 35024KT 04/M12 A3011 RMK A01 T00431123  RH  029%=      5-min Rain = 0
KUM1 132343Z 35022KT 04/M12 A3011 RMK A01 T00421122  RH  029%=      5-min Rain = 0
KUM1 132344Z 35024G31KT 04/M12 A3011 RMK A01 T00401122  RH  030%=      5-min Rain = 0
KUM1 132345Z 36023G29KT 04/M12 A3011 RMK A01 T00401121  RH  030%=      5-min Rain = 0
KUM1 132346Z 35023KT 04/M12 A3011 RMK A01 T00391121  RH  030%=      5-min Rain = 0
KUM1 132347Z 35025KT 04/M12 A3011 RMK A01 T00391121  RH  030%=      5-min Rain = 0
KUM1 132348Z 35023KT 04/M12 A3011 RMK A01 T00381121  RH  030%=      5-min Rain = 0
KUM1 132349Z 35025KT 04/M12 A3011 RMK A01 T00391120  RH  030%=      5-min Rain = 0
KUM1 132350Z 35022KT 04/M12 A3011 RMK A01 T00381121  RH  030%=      5-min Rain = 0
KUM1 132351Z 35022G29KT 04/M12 A3011 RMK A01 T00381121  RH  030%=      5-min Rain = 0
KUM1 132352Z 35023KT 04/M12 A3011 RMK A01 T00381121  RH  030%=      5-min Rain = 0
KUM1 132353Z 35022KT 04/M12 A3011 RMK A01 T00371122  RH  030%=      5-min Rain = 0
KUM1 132354Z 36029G34KT 04/M12 A3011 RMK A01 T00371121  RH  030%=      5-min Rain = 0
KUM1 132355Z 36027KT 04/M12 A3011 RMK A01 T00391121  RH  030%=      5-min Rain = 0
KUM1 132356Z 36028KT 04/M12 A3011 RMK A01 T00391121  RH  030%=      5-min Rain = 0
KUM1 132357Z 35024KT 04/M12 A3011 RMK A01 T00401121  RH  030%=      5-min Rain = 0
KUM1 132358Z 35028KT 04/M12 A3011 RMK A01 T00391121  RH  030%=      5-min Rain = 0
KUM1 132359Z 35029KT 04/M12 A3011 RMK A01 T00391121  RH  030%=      5-min Rain = 0
KUM1 140000Z 35027KT 04/M12 A3011 RMK A01 T00391122  RH  030%=      5-min Rain = 0
KUM1 140001Z 35025KT 04/M12 A3012 RMK A01 T00401121  RH  030%=      5-min Rain = 0
KUM1 140002Z 35023KT 04/M12 A3012 RMK A01 T00391122  RH  030%=      5-min Rain = 0
KUM1 140003Z 36024KT 04/M12 A3012 RMK A01 T00381122  RH  030%=      5-min Rain = 0
KUM1 140004Z 35027KT 04/M12 A3012 RMK A01 T00371121  RH  030%=      5-min Rain = 0
KUM1 140005Z 35022G27KT 04/M12 A3012 RMK A01 T00371121  RH  030%=      5-min Rain = 0
KUM1 140006Z 35021KT 04/M12 A3012 RMK A01 T00371121  RH  030%=      5-min Rain = 0
KUM1 140007Z 35024G29KT 04/M12 A3012 RMK A01 T00361121  RH  031%=      5-min Rain = 0
KUM1 140008Z 35024G29KT 04/M12 A3012 RMK A01 T00361121  RH  031%=      5-min Rain = 0
KUM1 140009Z 35024KT 04/M12 A3012 RMK A01 T00361121  RH  031%=      5-min Rain = 0
KUM1 140010Z 35025G33KT 04/M12 A3012 RMK A01 T00361121  RH  031%=      5-min Rain = 0
KUM1 140011Z 35028G33KT 04/M12 A3012 RMK A01 T00361121  RH  031%=      5-min Rain = 0
KUM1 140012Z 35026KT 04/M12 A3012 RMK A01 T00371121  RH  030%=      5-min Rain = 0
KUM1 140013Z 35022KT 04/M12 A3012 RMK A01 T00361122  RH  030%=      5-min Rain = 0
KUM1 140014Z 36026G31KT 04/M12 A3012 RMK A01 T00361121  RH  031%=      5-min Rain = 0
KUM1 140015Z 35023KT 04/M12 A3012 RMK A01 T00361121  RH  031%=      5-min Rain = 0
KUM1 140016Z 36025G30KT 04/M12 A3012 RMK A01 T00361121  RH  031%=      5-min Rain = 0
KUM1 140017Z 35024G29KT 04/M12 A3013 RMK A01 T00361121  RH  031%=      5-min Rain = 0
KUM1 140018Z 35024KT 04/M12 A3013 RMK A01 T00361121  RH  031%=      5-min Rain = 0
KUM1 140019Z 35024KT 04/M12 A3013 RMK A01 T00361120  RH  031%=      5-min Rain = 0
KUM1 140020Z 35024KT 04/M12 A3013 RMK A01 T00351121  RH  031%=      5-min Rain = 0
KUM1 140021Z 35023KT 04/M12 A3013 RMK A01 T00351121  RH  031%=      5-min Rain = 0
KUM1 140022Z 35021KT 03/M12 A3013 RMK A01 T00341121  RH  031%=      5-min Rain = 0
KUM1 140023Z 35022KT 03/M12 A3013 RMK A01 T00331121  RH  031%=      5-min Rain = 0
KUM1 140024Z 35021KT 03/M12 A3013 RMK A01 T00331121  RH  031%=      5-min Rain = 0
KUM1 140025Z 35021KT 03/M12 A3013 RMK A01 T00321121  RH  032%=      5-min Rain = 0
KUM1 140026Z 35022KT 03/M12 A3013 RMK A01 T00321121  RH  032%=      5-min Rain = 0
KUM1 140027Z 35024KT 03/M12 A3013 RMK A01 T00321121  RH  032%=      5-min Rain = 0
KUM1 140028Z 35020KT 03/M12 A3014 RMK A01 T00331121  RH  031%=      5-min Rain = 0
KUM1 140029Z 36023KT 03/M12 A3014 RMK A01 T00331121  RH  031%=      5-min Rain = 0
KUM1 140030Z 35021G26KT 03/M12 A3014 RMK A01 T00321121  RH  031%=      5-min Rain = 0
KUM1 140031Z 36020G26KT 03/M12 A3014 RMK A01 T00321121  RH  032%=      5-min Rain = 0
KUM1 140032Z 35025KT 03/M12 A3014 RMK A01 T00311121  RH  032%=      5-min Rain = 0
KUM1 140033Z 35023KT 03/M12 A3014 RMK A01 T00311121  RH  032%=      5-min Rain = 0
KUM1 140034Z 35022KT 03/M12 A3014 RMK A01 T00311121  RH  032%=      5-min Rain = 0
KUM1 140035Z 35023KT 03/M12 A3014 RMK A01 T00321121  RH  032%=      5-min Rain = 0
KUM1 140036Z 35022G28KT 03/M12 A3014 RMK A01 T00321121  RH  032%=      5-min Rain = 0
KUM1 140037Z 36023KT 03/M12 A3014 RMK A01 T00321121  RH  032%=      5-min Rain = 0
KUM1 140038Z 36026KT 03/M12 A3014 RMK A01 T00321121  RH  032%=      5-min Rain = 0
KUM1 140039Z 35024KT 03/M12 A3014 RMK A01 T00321121  RH  031%=      5-min Rain = 0
KUM1 140040Z 35022KT 03/M12 A3014 RMK A01 T00321122  RH  031%=      5-min Rain = 0
KUM1 140041Z 35021G26KT 03/M12 A3014 RMK A01 T00311122  RH  032%=      5-min Rain = 0
KUM1 140042Z 35022KT 03/M12 A3014 RMK A01 T00301122  RH  032%=      5-min Rain = 0
KUM1 140043Z 35021KT 03/M12 A3014 RMK A01 T00311121  RH  032%=      5-min Rain = 0
KUM1 140044Z 35024KT 03/M12 A3014 RMK A01 T00291122  RH  032%=      5-min Rain = 0
KUM1 140045Z 35021KT 03/M12 A3015 RMK A01 T00301121  RH  032%=      5-min Rain = 0
KUM1 140046Z 35022KT 03/M12 A3015 RMK A01 T00301121  RH  032%=      5-min Rain = 0
KUM1 140047Z 36021KT 03/M12 A3015 RMK A01 T00301121  RH  032%=      5-min Rain = 0
KUM1 140048Z 35020KT 03/M12 A3015 RMK A01 T00291121  RH  032%=      5-min Rain = 0
KUM1 140049Z 36021KT 03/M12 A3015 RMK A01 T00281121  RH  032%=      5-min Rain = 0
KUM1 140050Z 35021KT 03/M12 A3015 RMK A01 T00281122  RH  032%=      5-min Rain = 0
KUM1 140051Z 35018KT 03/M12 A3015 RMK A01 T00281121  RH  032%=      5-min Rain = 0
KUM1 140052Z 36022G27KT 03/M12 A3015 RMK A01 T00281121  RH  032%=      5-min Rain = 0
KUM1 140053Z 36018KT 03/M12 A3015 RMK A01 T00281121  RH  033%=      5-min Rain = 0
KUM1 140054Z 35019KT 03/M12 A3015 RMK A01 T00271121  RH  033%=      5-min Rain = 0
KUM1 140055Z 36019KT 03/M12 A3015 RMK A01 T00261121  RH  033%=      5-min Rain = 0
KUM1 140056Z 36021KT 03/M12 A3015 RMK A01 T00261121  RH  033%=      5-min Rain = 0
KUM1 140057Z 35020KT 03/M12 A3015 RMK A01 T00261121  RH  033%=      5-min Rain = 0
KUM1 140058Z 35022KT 03/M12 A3015 RMK A01 T00271121  RH  033%=      5-min Rain = 0
KUM1 140059Z 35020KT 03/M12 A3015 RMK A01 T00271121  RH  033%=      5-min Rain = 0
KUM1 140100Z 36019KT 03/M12 A3015 RMK A01 T00261121  RH  033%=      5-min Rain = 0
KUM1 140101Z 35021KT 03/M12 A3015 RMK A01 T00251121  RH  033%=      5-min Rain = 0
KUM1 140102Z 35020KT 03/M12 A3015 RMK A01 T00251121  RH  033%=      5-min Rain = 0
KUM1 140103Z 35022KT 03/M12 A3015 RMK A01 T00251121  RH  033%=      5-min Rain = 0
KUM1 140104Z 35019KT 03/M12 A3016 RMK A01 T00261121  RH  033%=      5-min Rain = 0
KUM1 140105Z 36019KT 03/M12 A3015 RMK A01 T00251121  RH  033%=      5-min Rain = 0
KUM1 140106Z 36018G23KT 02/M12 A3016 RMK A01 T00241121  RH  033%=      5-min Rain = 0
KUM1 140107Z 35020KT 02/M12 A3015 RMK A01 T00231121  RH  033%=      5-min Rain = 0
KUM1 140108Z 35020KT 02/M12 A3015 RMK A01 T00241121  RH  033%=      5-min Rain = 0
KUM1 140109Z 35022KT 02/M12 A3015 RMK A01 T00241121  RH  033%=      5-min Rain = 0
KUM1 140110Z 35019G24KT 03/M12 A3016 RMK A01 T00251121  RH  033%=      5-min Rain = 0
KUM1 140111Z 35019KT 02/M12 A3016 RMK A01 T00241121  RH  033%=      5-min Rain = 0
KUM1 140112Z 00018KT 02/M12 A3016 RMK A01 T00241121  RH  033%=      5-min Rain = 0
KUM1 140113Z 36019KT 02/M12 A3016 RMK A01 T00231121  RH  034%=      5-min Rain = 0
KUM1 140114Z 35019G24KT 02/M12 A3016 RMK A01 T00231121  RH  034%=      5-min Rain = 0
KUM1 140115Z 36020KT 02/M12 A3016 RMK A01 T00231121  RH  034%=      5-min Rain = 0
KUM1 140116Z 36021KT 02/M12 A3016 RMK A01 T00231121  RH  034%=      5-min Rain = 0
KUM1 140117Z 36018KT 02/M12 A3016 RMK A01 T00241121  RH  034%=      5-min Rain = 0
KUM1 140118Z 36019KT 02/M12 A3016 RMK A01 T00231121  RH  034%=      5-min Rain = 0
KUM1 140119Z 36019KT 02/M12 A3016 RMK A01 T00231121  RH  034%=      5-min Rain = 0
KUM1 140120Z 36017KT 02/M12 A3016 RMK A01 T00221121  RH  034%=      5-min Rain = 0
KUM1 140121Z 36017KT 02/M12 A3016 RMK A01 T00211121  RH  034%=      5-min Rain = 0
KUM1 140122Z 36019KT 02/M12 A3016 RMK A01 T00201121  RH  034%=      5-min Rain = 0
KUM1 140123Z 36019KT 02/M12 A3016 RMK A01 T00211120  RH  034%=      5-min Rain = 0
KUM1 140124Z 36019KT 02/M12 A3016 RMK A01 T00211120  RH  034%=      5-min Rain = 0
KUM1 140125Z 35019KT 02/M12 A3016 RMK A01 T00211121  RH  034%=      5-min Rain = 0
KUM1 140126Z 35019KT 02/M12 A3016 RMK A01 T00211121  RH  034%=      5-min Rain = 0
KUM1 140127Z 36019G24KT 02/M12 A3016 RMK A01 T00211121  RH  034%=      5-min Rain = 0
KUM1 140128Z 35018KT 02/M12 A3016 RMK A01 T00211121  RH  034%=      5-min Rain = 0
KUM1 140129Z 36019KT 02/M12 A3016 RMK A01 T00201121  RH  034%=      5-min Rain = 0
KUM1 140130Z 35019KT 02/M12 A3016 RMK A01 T00201121  RH  034%=      5-min Rain = 0
KUM1 140131Z 36018KT 02/M12 A3016 RMK A01 T00201121  RH  034%=      5-min Rain = 0
KUM1 140132Z 36019KT 02/M12 A3016 RMK A01 T00191121  RH  034%=      5-min Rain = 0
KUM1 140133Z 36020KT 02/M12 A3016 RMK A01 T00191122  RH  035%=      5-min Rain = 0
KUM1 140134Z 36019KT 02/M12 A3016 RMK A01 T00191121  RH  034%=      5-min Rain = 0
KUM1 140135Z 00018KT 02/M12 A3017 RMK A01 T00201121  RH  034%=      5-min Rain = 0
KUM1 140136Z 36019KT 02/M12 A3017 RMK A01 T00191121  RH  035%=      5-min Rain = 0
KUM1 140137Z 36018KT 02/M12 A3017 RMK A01 T00181121  RH  035%=      5-min Rain = 0
KUM1 140138Z 36020KT 02/M12 A3017 RMK A01 T00191121  RH  035%=      5-min Rain = 0
KUM1 140139Z 36019KT 02/M12 A3017 RMK A01 T00191121  RH  035%=      5-min Rain = 0
KUM1 140140Z 35019KT 02/M12 A3017 RMK A01 T00191121  RH  035%=      5-min Rain = 0
KUM1 140141Z 36017KT 02/M12 A3017 RMK A01 T00191121  RH  035%=      5-min Rain = 0
KUM1 140142Z 36018KT 02/M12 A3017 RMK A01 T00191121  RH  035%=      5-min Rain = 0
KUM1 140143Z 36018KT 02/M12 A3017 RMK A01 T00181121  RH  035%=      5-min Rain = 0
KUM1 140144Z 36018KT 02/M12 A3017 RMK A01 T00181121  RH  035%=      5-min Rain = 0
KUM1 140145Z 36019KT 02/M12 A3017 RMK A01 T00181121  RH  035%=      5-min Rain = 0
KUM1 140146Z 00018KT 02/M12 A3017 RMK A01 T00181121  RH  035%=      5-min Rain = 0
KUM1 140147Z 36019G24KT 02/M12 A3017 RMK A01 T00191120  RH  035%=      5-min Rain = 0
KUM1 140148Z 00017KT 02/M12 A3017 RMK A01 T00181121  RH  035%=      5-min Rain = 0
KUM1 140149Z 00016KT 02/M12 A3017 RMK A01 T00181121  RH  035%=      5-min Rain = 0
KUM1 140150Z 36018KT 02/M12 A3017 RMK A01 T00171121  RH  035%=      5-min Rain = 0
KUM1 140151Z 00017KT 02/M12 A3017 RMK A01 T00161121  RH  035%=      5-min Rain = 0
KUM1 140152Z 36017G22KT 02/M12 A3017 RMK A01 T00161120  RH  036%=      5-min Rain = 0
KUM1 140153Z 36018KT 02/M12 A3017 RMK A01 T00151120  RH  036%=      5-min Rain = 0
KUM1 140154Z 36017KT 02/M12 A3017 RMK A01 T00161120  RH  036%=      5-min Rain = 0
KUM1 140155Z 36016KT 02/M12 A3017 RMK A01 T00161121  RH  035%=      5-min Rain = 0
KUM1 140156Z 00019KT 02/M12 A3017 RMK A01 T00161121  RH  036%=      5-min Rain = 0
KUM1 140157Z 36019KT 02/M12 A3017 RMK A01 T00161121  RH  036%=      5-min Rain = 0
KUM1 140158Z 00018KT 02/M12 A3017 RMK A01 T00161121  RH  035%=      5-min Rain = 0
KUM1 140159Z 36018KT 02/M12 A3017 RMK A01 T00161121  RH  035%=      5-min Rain = 0
KUM1 140200Z 36017KT 02/M12 A3017 RMK A01 T00161121  RH  035%=      5-min Rain = 0
KUM1 140201Z 36016KT 02/M12 A3017 RMK A01 T00151121  RH  036%=      5-min Rain = 0
KUM1 140202Z 36016KT 02/M12 A3017 RMK A01 T00151121  RH  036%=      5-min Rain = 0
KUM1 140203Z 35017KT 01/M12 A3017 RMK A01 T00141121  RH  036%=      5-min Rain = 0
KUM1 140204Z 36020KT 01/M12 A3017 RMK A01 T00141121  RH  036%=      5-min Rain = 0
KUM1 140205Z 36019KT 02/M12 A3017 RMK A01 T00151121  RH  036%=      5-min Rain = 0
KUM1 140206Z 36016KT 02/M12 A3017 RMK A01 T00151121  RH  035%=      5-min Rain = 0
KUM1 140207Z 36017KT 02/M12 A3017 RMK A01 T00151121  RH  036%=      5-min Rain = 0
KUM1 140208Z 35017KT 01/M12 A3017 RMK A01 T00141121  RH  036%=      5-min Rain = 0
KUM1 140209Z 35016KT 01/M12 A3018 RMK A01 T00141121  RH  036%=      5-min Rain = 0
KUM1 140210Z 36016KT 01/M12 A3018 RMK A01 T00121122  RH  036%=      5-min Rain = 0
KUM1 140211Z 36016KT 01/M12 A3018 RMK A01 T00121122  RH  036%=      5-min Rain = 0
KUM1 140212Z 35018KT 01/M12 A3018 RMK A01 T00121121  RH  036%=      5-min Rain = 0
KUM1 140213Z 35018KT 01/M12 A3018 RMK A01 T00121121  RH  036%=      5-min Rain = 0
KUM1 140214Z 35017KT 01/M12 A3018 RMK A01 T00121121  RH  036%=      5-min Rain = 0
KUM1 140215Z 36016KT 01/M12 A3018 RMK A01 T00111121  RH  036%=      5-min Rain = 0
KUM1 140216Z 36016KT 01/M12 A3018 RMK A01 T00111122  RH  037%=      5-min Rain = 0
KUM1 140217Z 36016G21KT 01/M12 A3018 RMK A01 T00111121  RH  037%=      5-min Rain = 0
KUM1 140218Z 35016KT 01/M12 A3018 RMK A01 T00101121  RH  037%=      5-min Rain = 0
KUM1 140219Z 35017KT 01/M12 A3018 RMK A01 T00101121  RH  037%=      5-min Rain = 0
KUM1 140220Z 36015KT 01/M12 A3018 RMK A01 T00101121  RH  037%=      5-min Rain = 0
KUM1 140221Z 36017KT 01/M12 A3018 RMK A01 T00091122  RH  037%=      5-min Rain = 0
KUM1 140222Z 36015KT 01/M12 A3018 RMK A01 T00091121  RH  037%=      5-min Rain = 0
KUM1 140223Z 36015KT 01/M12 A3018 RMK A01 T00091121  RH  037%=      5-min Rain = 0
KUM1 140224Z 36016KT 01/M12 A3018 RMK A01 T00091121  RH  037%=      5-min Rain = 0
KUM1 140225Z 35016KT 01/M12 A3019 RMK A01 T00081121  RH  037%=      5-min Rain = 0
KUM1 140226Z 36015KT 01/M12 A3019 RMK A01 T00081121  RH  037%=      5-min Rain = 0
KUM1 140227Z 35014KT 01/M12 A3019 RMK A01 T00081121  RH  037%=      5-min Rain = 0
KUM1 140228Z 36015KT 01/M12 A3019 RMK A01 T00081121  RH  038%=      5-min Rain = 0
KUM1 140229Z 36015KT 01/M12 A3019 RMK A01 T00071121  RH  038%=      5-min Rain = 0
KUM1 140230Z 36015KT 01/M12 A3019 RMK A01 T00061121  RH  038%=      5-min Rain = 0
KUM1 140231Z 36015KT 01/M12 A3019 RMK A01 T00061121  RH  038%=      5-min Rain = 0
KUM1 140232Z 36014KT 01/M12 A3019 RMK A01 T00061121  RH  038%=      5-min Rain = 0
KUM1 140233Z 36015KT 01/M12 A3019 RMK A01 T00051121  RH  038%=      5-min Rain = 0
KUM1 140234Z 36014KT 01/M12 A3019 RMK A01 T00051121  RH  038%=      5-min Rain = 0
KUM1 140235Z 36015KT 01/M12 A3019 RMK A01 T00051121  RH  038%=      5-min Rain = 0
KUM1 140236Z 36014KT 01/M12 A3019 RMK A01 T00051121  RH  038%=      5-min Rain = 0
KUM1 140237Z 00015KT 01/M12 A3019 RMK A01 T00051121  RH  038%=      5-min Rain = 0
KUM1 140238Z 00015KT 00/M12 A3019 RMK A01 T00041121  RH  039%=      5-min Rain = 0
KUM1 140239Z 00014KT 00/M12 A3019 RMK A01 T00041121  RH  039%=      5-min Rain = 0
KUM1 140240Z 36015KT 00/M12 A3019 RMK A01 T00041121  RH  039%=      5-min Rain = 0
KUM1 140241Z 00015KT 01/M12 A3019 RMK A01 T00051121  RH  039%=      5-min Rain = 0
KUM1 140242Z 36014KT 01/M12 A3019 RMK A01 T00051121  RH  038%=      5-min Rain = 0
KUM1 140243Z 36014KT 00/M12 A3019 RMK A01 T00041121  RH  039%=      5-min Rain = 0
KUM1 140244Z 36015KT 00/M12 A3019 RMK A01 T00031121  RH  039%=      5-min Rain = 0
KUM1 140245Z 36014KT 00/M12 A3019 RMK A01 T00031121  RH  039%=      5-min Rain = 0
KUM1 140246Z 35014KT 00/M12 A3019 RMK A01 T00031121  RH  039%=      5-min Rain = 0
KUM1 140247Z 36015KT 00/M12 A3019 RMK A01 T00021121  RH  039%=      5-min Rain = 0
KUM1 140248Z 35015KT 00/M12 A3019 RMK A01 T00021121  RH  039%=      5-min Rain = 0
KUM1 140249Z 35015KT 00/M12 A3019 RMK A01 T00031120  RH  039%=      5-min Rain = 0
KUM1 140250Z 36015KT 00/M12 A3019 RMK A01 T00021121  RH  039%=      5-min Rain = 0
KUM1 140251Z 36015KT 00/M12 A3019 RMK A01 T00021121  RH  039%=      5-min Rain = 0
KUM1 140252Z 35013KT 00/M12 A3019 RMK A01 T00021121  RH  039%=      5-min Rain = 0
KUM1 140253Z 36014KT 00/M12 A3019 RMK A01 T00011121  RH  039%=      5-min Rain = 0
KUM1 140254Z 35014KT 00/M12 A3019 RMK A01 T00011121  RH  039%=      5-min Rain = 0
KUM1 140255Z 35014KT 00/12 A3019 RMK A01 T00000-121  RH  040%=      5-min Rain = 0
KUM1 140256Z 36014KT 00/12 A3019 RMK A01 T00-00-121  RH  040%=      5-min Rain = 0
KUM1 140257Z 36013KT 00/12 A3019 RMK A01 T00-00-121  RH  040%=      5-min Rain = 0
KUM1 140258Z 35014KT M00/M12 A3019 RMK A01 T10011122  RH  040%=      5-min Rain = 0
KUM1 140259Z 35015KT M00/M12 A3019 RMK A01 T10011122  RH  040%=      5-min Rain = 0
KUM1 140300Z 35014KT M00/M12 A3019 RMK A01 T10011121  RH  040%=      5-min Rain = 0
KUM1 140301Z 35015KT M00/M12 A3019 RMK A01 T10011121  RH  040%=      5-min Rain = 0
KUM1 140302Z 35014KT M00/M12 A3019 RMK A01 T10011122  RH  040%=      5-min Rain = 0
KUM1 140303Z 35015KT M00/M12 A3019 RMK A01 T10011122  RH  040%=      5-min Rain = 0
KUM1 140304Z 35014KT M00/M12 A3019 RMK A01 T10011122  RH  040%=      5-min Rain = 0
KUM1 140305Z 35015KT M00/M12 A3019 RMK A01 T10011122  RH  040%=      5-min Rain = 0
KUM1 140306Z 35013KT M00/M12 A3019 RMK A01 T10011122  RH  040%=      5-min Rain = 0
KUM1 140307Z 35014KT M00/M12 A3019 RMK A01 T10021122  RH  040%=      5-min Rain = 0
KUM1 140308Z 35014KT M00/M12 A302 RMK A01 T10031122  RH  040%=      5-min Rain = 0
KUM1 140309Z 35013KT M00/M12 A302 RMK A01 T10031122  RH  040%=      5-min Rain = 0
KUM1 140310Z 35014KT M00/M12 A302 RMK A01 T10031122  RH  040%=      5-min Rain = 0
KUM1 140311Z 35014KT M00/M12 A302 RMK A01 T10041122  RH  040%=      5-min Rain = 0
KUM1 140312Z 35013KT M00/M12 A302 RMK A01 T10041122  RH  041%=      5-min Rain = 0
KUM1 140313Z 35013KT M01/M12 A302 RMK A01 T10051122  RH  041%=      5-min Rain = 0
KUM1 140314Z 35013KT M01/M12 A302 RMK A01 T10061122  RH  041%=      5-min Rain = 0
KUM1 140315Z 35012KT M01/M12 A302 RMK A01 T10061122  RH  041%=      5-min Rain = 0
KUM1 140316Z 35012KT M01/M12 A302 RMK A01 T10071122  RH  042%=      5-min Rain = 0
KUM1 140317Z 35013KT M01/M12 A302 RMK A01 T10081121  RH  042%=      5-min Rain = 0
KUM1 140318Z 35013KT M01/M12 A302 RMK A01 T10081121  RH  042%=      5-min Rain = 0
KUM1 140319Z 35012KT M01/M12 A302 RMK A01 T10081121  RH  042%=      5-min Rain = 0
KUM1 140320Z 35012KT M01/M12 A302 RMK A01 T10091121  RH  043%=      5-min Rain = 0
KUM1 140321Z 35013KT M01/M12 A302 RMK A01 T10101121  RH  043%=      5-min Rain = 0
KUM1 140322Z 35012KT M01/M12 A302 RMK A01 T10101121  RH  043%=      5-min Rain = 0
KUM1 140323Z 35012KT M01/M12 A302 RMK A01 T10101121  RH  043%=      5-min Rain = 0
KUM1 140324Z 35012KT M01/M12 A302 RMK A01 T10101121  RH  043%=      5-min Rain = 0
KUM1 140325Z 35012KT M01/M12 A302 RMK A01 T10101121  RH  043%=      5-min Rain = 0
KUM1 140326Z 35012KT M01/M12 A302 RMK A01 T10101121  RH  043%=      5-min Rain = 0
KUM1 140327Z 35012KT M01/M12 A3021 RMK A01 T10111121  RH  043%=      5-min Rain = 0
KUM1 140328Z 35012KT M01/M12 A3021 RMK A01 T10121121  RH  043%=      5-min Rain = 0
KUM1 140329Z 35011KT M01/M12 A3021 RMK A01 T10131121  RH  043%=      5-min Rain = 0
KUM1 140330Z 35012KT M01/M12 A3021 RMK A01 T10141122  RH  044%=      5-min Rain = 0
KUM1 140331Z 35011KT M01/M12 A3021 RMK A01 T10141122  RH  044%=      5-min Rain = 0
KUM1 140332Z 34012KT M02/M12 A3021 RMK A01 T10151122  RH  044%=      5-min Rain = 0
KUM1 140333Z 34011KT M02/M12 A3021 RMK A01 T10151122  RH  044%=      5-min Rain = 0
KUM1 140334Z 34012KT M02/M12 A3021 RMK A01 T10151122  RH  044%=      5-min Rain = 0
KUM1 140335Z 34012KT M02/M12 A3021 RMK A01 T10151122  RH  044%=      5-min Rain = 0
KUM1 140336Z 34011KT M02/M12 A3021 RMK A01 T10151122  RH  044%=      5-min Rain = 0
KUM1 140337Z 34011KT M02/M12 A3021 RMK A01 T10171123  RH  044%=      5-min Rain = 0
KUM1 140338Z 35011KT M02/M12 A3021 RMK A01 T10171123  RH  044%=      5-min Rain = 0
KUM1 140339Z 34012KT M02/M12 A3021 RMK A01 T10181123  RH  045%=      5-min Rain = 0
KUM1 140340Z 34012KT M02/M12 A3021 RMK A01 T10171122  RH  045%=      5-min Rain = 0
KUM1 140341Z 35012KT M02/M12 A3021 RMK A01 T10171122  RH  045%=      5-min Rain = 0
KUM1 140342Z 35012KT M02/M12 A3021 RMK A01 T10171122  RH  044%=      5-min Rain = 0
KUM1 140343Z 35012KT M02/M12 A3021 RMK A01 T10171122  RH  044%=      5-min Rain = 0
KUM1 140344Z 35012KT M02/M12 A3021 RMK A01 T10171122  RH  044%=      5-min Rain = 0
KUM1 140345Z 35012KT M02/M12 A3021 RMK A01 T10161122  RH  044%=      5-min Rain = 0
KUM1 140346Z 35012KT M02/M12 A3021 RMK A01 T10161122  RH  044%=      5-min Rain = 0
KUM1 140347Z 35013KT M02/M12 A3021 RMK A01 T10161122  RH  044%=      5-min Rain = 0
KUM1 140348Z 35013KT M02/M12 A3021 RMK A01 T10161122  RH  044%=      5-min Rain = 0
KUM1 140349Z 35013KT M02/M12 A3021 RMK A01 T10161123  RH  044%=      5-min Rain = 0
KUM1 140350Z 35012KT M02/M12 A3021 RMK A01 T10161122  RH  044%=      5-min Rain = 0
KUM1 140351Z 35012KT M02/M12 A3021 RMK A01 T10161122  RH  044%=      5-min Rain = 0
KUM1 140352Z 35012KT M02/M12 A3021 RMK A01 T10171123  RH  044%=      5-min Rain = 0
KUM1 140353Z 34013KT M02/M12 A3021 RMK A01 T10171123  RH  044%=      5-min Rain = 0
KUM1 140354Z 34013KT M02/M12 A3021 RMK A01 T10171123  RH  044%=      5-min Rain = 0
KUM1 140355Z 34013KT M02/M12 A3021 RMK A01 T10171123  RH  044%=      5-min Rain = 0
KUM1 140356Z 34014KT M02/M12 A3021 RMK A01 T10171122  RH  044%=      5-min Rain = 0
KUM1 140357Z 34013KT M02/M12 A3021 RMK A01 T10171123  RH  044%=      5-min Rain = 0
KUM1 140358Z 34014KT M02/M12 A3021 RMK A01 T10161122  RH  044%=      5-min Rain = 0
KUM1 140359Z 34014KT M02/M12 A3021 RMK A01 T10161122  RH  044%=      5-min Rain = 0
KUM1 140400Z 34014KT M02/M12 A3021 RMK A01 T10171122  RH  044%=      5-min Rain = 0
KUM1 140401Z 35013KT M02/M12 A3021 RMK A01 T10171122  RH  045%=      5-min Rain = 0
KUM1 140402Z 35014KT M02/M12 A3021 RMK A01 T10181122  RH  045%=      5-min Rain = 0
KUM1 140403Z 35014KT M02/M12 A3021 RMK A01 T10171122  RH  045%=      5-min Rain = 0
KUM1 140404Z 35014KT M02/M12 A3021 RMK A01 T10171122  RH  045%=      5-min Rain = 0
KUM1 140405Z 35014KT M02/M12 A3021 RMK A01 T10161122  RH  044%=      5-min Rain = 0
KUM1 140406Z 35014KT M02/M12 A3021 RMK A01 T10151122  RH  044%=      5-min Rain = 0
KUM1 140407Z 35013KT M02/M12 A3021 RMK A01 T10151121  RH  044%=      5-min Rain = 0
KUM1 140408Z 35015KT M02/M12 A3021 RMK A01 T10161122  RH  044%=      5-min Rain = 0
KUM1 140409Z 35013KT M02/M12 A3021 RMK A01 T10161122  RH  044%=      5-min Rain = 0
KUM1 140410Z 34014KT M02/M12 A3021 RMK A01 T10161122  RH  044%=      5-min Rain = 0
KUM1 140411Z 35014KT M02/M12 A3021 RMK A01 T10161122  RH  044%=      5-min Rain = 0
KUM1 140412Z 34014KT M02/M12 A3022 RMK A01 T10151121  RH  044%=      5-min Rain = 0
KUM1 140413Z 35014KT M02/M12 A3022 RMK A01 T10151121  RH  044%=      5-min Rain = 0
KUM1 140414Z 34014KT M02/M12 A3022 RMK A01 T10151122  RH  044%=      5-min Rain = 0
KUM1 140415Z 35014KT M02/M12 A3022 RMK A01 T10161122  RH  044%=      5-min Rain = 0
KUM1 140416Z 35013KT M02/M12 A3022 RMK A01 T10161122  RH  044%=      5-min Rain = 0
KUM1 140417Z 34013KT M02/M12 A3022 RMK A01 T10161121  RH  045%=      5-min Rain = 0
KUM1 140418Z 34013KT M02/M12 A3022 RMK A01 T10171121  RH  045%=      5-min Rain = 0
KUM1 140419Z 34013KT M02/M12 A3022 RMK A01 T10181121  RH  045%=      5-min Rain = 0
KUM1 140420Z 34013KT M02/M12 A3022 RMK A01 T10191121  RH  046%=      5-min Rain = 0
KUM1 140421Z 34013KT M02/M12 A3022 RMK A01 T10191121  RH  046%=      5-min Rain = 0
KUM1 140422Z 34012KT M02/M12 A3022 RMK A01 T10201121  RH  046%=      5-min Rain = 0
KUM1 140423Z 34012KT M02/M12 A3022 RMK A01 T10211121  RH  046%=      5-min Rain = 0
KUM1 140424Z 34012KT M02/M12 A3022 RMK A01 T10231121  RH  047%=      5-min Rain = 0
KUM1 140425Z 34011KT M02/M12 A3022 RMK A01 T10231122  RH  047%=      5-min Rain = 0
KUM1 140426Z 34012KT M02/M12 A3022 RMK A01 T10241121  RH  047%=      5-min Rain = 0
KUM1 140427Z 34012KT M02/M12 A3022 RMK A01 T10241121  RH  047%=      5-min Rain = 0
KUM1 140428Z 33011KT M02/M12 A3023 RMK A01 T10241121  RH  048%=      5-min Rain = 0
KUM1 140429Z 34012KT M03/M12 A3023 RMK A01 T10261121  RH  048%=      5-min Rain = 0
KUM1 140430Z 33012KT M03/M12 A3023 RMK A01 T10261121  RH  048%=      5-min Rain = 0
KUM1 140431Z 33012KT M03/M12 A3023 RMK A01 T10261121  RH  048%=      5-min Rain = 0
KUM1 140432Z 34011KT M03/M12 A3023 RMK A01 T10261120  RH  048%=      5-min Rain = 0
KUM1 140433Z 34012KT M03/M12 A3023 RMK A01 T10261120  RH  048%=      5-min Rain = 0
KUM1 140434Z 34011KT M03/M12 A3023 RMK A01 T10261121  RH  048%=      5-min Rain = 0
KUM1 140435Z 33013KT M03/M12 A3023 RMK A01 T10261121  RH  048%=      5-min Rain = 0
KUM1 140436Z 33013KT M03/M12 A3023 RMK A01 T10261122  RH  048%=      5-min Rain = 0
KUM1 140437Z 33013KT M03/M12 A3023 RMK A01 T10261121  RH  048%=      5-min Rain = 0
KUM1 140438Z 33013KT M03/M12 A3023 RMK A01 T10261121  RH  048%=      5-min Rain = 0
KUM1 140439Z 33013KT M03/M12 A3023 RMK A01 T10261121  RH  048%=      5-min Rain = 0
KUM1 140440Z 34013KT M03/M12 A3023 RMK A01 T10261122  RH  048%=      5-min Rain = 0
KUM1 140441Z 34013KT M03/M12 A3023 RMK A01 T10261121  RH  048%=      5-min Rain = 0
KUM1 140442Z 34015KT M03/M12 A3023 RMK A01 T10261122  RH  048%=      5-min Rain = 0
KUM1 140443Z 34015KT M03/M12 A3023 RMK A01 T10251121  RH  048%=      5-min Rain = 0
KUM1 140444Z 34015KT M02/M12 A3023 RMK A01 T10231121  RH  047%=      5-min Rain = 0
KUM1 140445Z 34015KT M02/M12 A3023 RMK A01 T10231121  RH  047%=      5-min Rain = 0
KUM1 140446Z 34015KT M02/M12 A3023 RMK A01 T10221122  RH  046%=      5-min Rain = 0
KUM1 140447Z 34015KT M02/M12 A3023 RMK A01 T10221122  RH  046%=      5-min Rain = 0
KUM1 140448Z 34013KT M02/M12 A3023 RMK A01 T10211122  RH  046%=      5-min Rain = 0
KUM1 140449Z 33013KT M02/M12 A3023 RMK A01 T10221122  RH  046%=      5-min Rain = 0
KUM1 140450Z 34013KT M02/M12 A3023 RMK A01 T10241123  RH  047%=      5-min Rain = 0
KUM1 140451Z 34012KT M03/M12 A3023 RMK A01 T10251123  RH  047%=      5-min Rain = 0
KUM1 140452Z 34012KT M03/M12 A3023 RMK A01 T10261123  RH  047%=      5-min Rain = 0
KUM1 140453Z 34012KT M03/M12 A3023 RMK A01 T10271122  RH  048%=      5-min Rain = 0
KUM1 140454Z 34012KT M03/M12 A3023 RMK A01 T10271122  RH  048%=      5-min Rain = 0
KUM1 140455Z 34012KT M03/M12 A3023 RMK A01 T10271122  RH  048%=      5-min Rain = 0
KUM1 140456Z 34012KT M03/M12 A3023 RMK A01 T10271122  RH  048%=      5-min Rain = 0
KUM1 140457Z 34012KT M03/M12 A3023 RMK A01 T10271122  RH  048%=      5-min Rain = 0
KUM1 140458Z 34011KT M03/M12 A3023 RMK A01 T10281122  RH  048%=      5-min Rain = 0
KUM1 140459Z 35011KT M03/M12 A3023 RMK A01 T10281122  RH  048%=      5-min Rain = 0
KUM1 140500Z 34011KT M03/M12 A3023 RMK A01 T10281122  RH  048%=      5-min Rain = 0
KUM1 140501Z 34010KT M03/M12 A3024 RMK A01 T10271121  RH  048%=      5-min Rain = 0
KUM1 140502Z 34010KT M03/M12 A3024 RMK A01 T10281121  RH  048%=      5-min Rain = 0
KUM1 140503Z 34010KT M03/M12 A3023 RMK A01 T10281121  RH  049%=      5-min Rain = 0
KUM1 140504Z 34010KT M03/M12 A3023 RMK A01 T10281121  RH  049%=      5-min Rain = 0
KUM1 140505Z 34009KT M03/M12 A3024 RMK A01 T10281121  RH  049%=      5-min Rain = 0
KUM1 140506Z 34010KT M03/M12 A3023 RMK A01 T10291121  RH  049%=      5-min Rain = 0
KUM1 140507Z 34010KT M03/M12 A3023 RMK A01 T10291121  RH  049%=      5-min Rain = 0
KUM1 140508Z 34010KT M03/M12 A3023 RMK A01 T10291121  RH  049%=      5-min Rain = 0
KUM1 140509Z 34011KT M03/M12 A3023 RMK A01 T10291121  RH  049%=      5-min Rain = 0
KUM1 140510Z 34011KT M03/M12 A3023 RMK A01 T10291121  RH  049%=      5-min Rain = 0
KUM1 140511Z 34011KT M03/M12 A3023 RMK A01 T10291121  RH  049%=      5-min Rain = 0
KUM1 140512Z 34013KT M03/M12 A3023 RMK A01 T10281121  RH  049%=      5-min Rain = 0
KUM1 140513Z 35014KT M03/M12 A3023 RMK A01 T10271121  RH  049%=      5-min Rain = 0
KUM1 140514Z 35014KT M02/M12 A3023 RMK A01 T10241120  RH  048%=      5-min Rain = 0
KUM1 140515Z 35014KT M02/M12 A3023 RMK A01 T10231120  RH  047%=      5-min Rain = 0
KUM1 140516Z 34014KT M02/M12 A3023 RMK A01 T10231121  RH  047%=      5-min Rain = 0
KUM1 140517Z 34013KT M02/M12 A3023 RMK A01 T10241122  RH  047%=      5-min Rain = 0
KUM1 140518Z 34014KT M03/M12 A3023 RMK A01 T10251122  RH  047%=      5-min Rain = 0
KUM1 140519Z 34013KT M03/M12 A3023 RMK A01 T10251122  RH  047%=      5-min Rain = 0
KUM1 140520Z 34013KT M03/M12 A3023 RMK A01 T10251121  RH  048%=      5-min Rain = 0
KUM1 140521Z 34012KT M03/M12 A3023 RMK A01 T10261122  RH  048%=      5-min Rain = 0
KUM1 140522Z 34011KT M03/M12 A3023 RMK A01 T10271122  RH  048%=      5-min Rain = 0
KUM1 140523Z 35012KT M03/M12 A3023 RMK A01 T10281122  RH  048%=      5-min Rain = 0
KUM1 140524Z 35013KT M03/M12 A3023 RMK A01 T10281121  RH  049%=      5-min Rain = 0
KUM1 140525Z 34013KT M03/M12 A3023 RMK A01 T10281121  RH  049%=      5-min Rain = 0
KUM1 140526Z 34014KT M03/M12 A3023 RMK A01 T10281121  RH  049%=      5-min Rain = 0
KUM1 140527Z 34013KT M03/M12 A3024 RMK A01 T10271121  RH  049%=      5-min Rain = 0
KUM1 140528Z 34014KT M03/M12 A3023 RMK A01 T10271121  RH  048%=      5-min Rain = 0
KUM1 140529Z 35012KT M03/M12 A3023 RMK A01 T10271121  RH  048%=      5-min Rain = 0
KUM1 140530Z 34012KT M03/M12 A3024 RMK A01 T10271121  RH  048%=      5-min Rain = 0
KUM1 140531Z 35012KT M03/M12 A3024 RMK A01 T10271121  RH  048%=      5-min Rain = 0
KUM1 140532Z 34013KT M03/M12 A3024 RMK A01 T10281121  RH  049%=      5-min Rain = 0
KUM1 140533Z 34012KT M03/M12 A3024 RMK A01 T10291122  RH  049%=      5-min Rain = 0
KUM1 140534Z 34012KT M03/M12 A3024 RMK A01 T10291121  RH  049%=      5-min Rain = 0
KUM1 140535Z 34012KT M03/M12 A3024 RMK A01 T10301122  RH  049%=      5-min Rain = 0
KUM1 140536Z 34012KT M03/M12 A3024 RMK A01 T10311122  RH  050%=      5-min Rain = 0
KUM1 140537Z 34012KT M03/M12 A3024 RMK A01 T10311121  RH  050%=      5-min Rain = 0
KUM1 140538Z 34012KT M03/M12 A3024 RMK A01 T10311121  RH  050%=      5-min Rain = 0
KUM1 140539Z 34012KT M03/M12 A3024 RMK A01 T10311121  RH  050%=      5-min Rain = 0
KUM1 140540Z 34013KT M03/M12 A3024 RMK A01 T10311121  RH  050%=      5-min Rain = 0
KUM1 140541Z 34013KT M03/M12 A3024 RMK A01 T10311120  RH  050%=      5-min Rain = 0
KUM1 140542Z 34015KT M03/M12 A3024 RMK A01 T10311120  RH  050%=      5-min Rain = 0
KUM1 140543Z 34015KT M03/M12 A3024 RMK A01 T10291119  RH  050%=      5-min Rain = 0
KUM1 140544Z 34015KT M03/M12 A3024 RMK A01 T10291119  RH  050%=      5-min Rain = 0
KUM1 140545Z 34014KT M03/M12 A3024 RMK A01 T10281119  RH  050%=      5-min Rain = 0
KUM1 140546Z 34015KT M03/M12 A3024 RMK A01 T10281119  RH  050%=      5-min Rain = 0
KUM1 140547Z 34014KT M03/M12 A3024 RMK A01 T10281119  RH  050%=      5-min Rain = 0
KUM1 140548Z 34014KT M03/M12 A3024 RMK A01 T10291119  RH  050%=      5-min Rain = 0
KUM1 140549Z 34015KT M03/M12 A3024 RMK A01 T10301119  RH  050%=      5-min Rain = 0
KUM1 140550Z 34014KT M03/M12 A3024 RMK A01 T10301119  RH  050%=      5-min Rain = 0
KUM1 140551Z 34014KT M03/M12 A3024 RMK A01 T10301119  RH  050%=      5-min Rain = 0
KUM1 140552Z 34014KT M03/M12 A3024 RMK A01 T10301120  RH  050%=      5-min Rain = 0
KUM1 140553Z 34014KT M03/M12 A3024 RMK A01 T10311120  RH  050%=      5-min Rain = 0
KUM1 140554Z 33013KT M03/M12 A3024 RMK A01 T10311120  RH  051%=      5-min Rain = 0
KUM1 140555Z 34014KT M03/M12 A3024 RMK A01 T10321119  RH  051%=      5-min Rain = 0
KUM1 140556Z 34013KT M03/M12 A3024 RMK A01 T10321119  RH  051%=      5-min Rain = 0
KUM1 140557Z 34013KT M03/M12 A3024 RMK A01 T10321120  RH  051%=      5-min Rain = 0
KUM1 140558Z 33013KT M03/M12 A3024 RMK A01 T10331120  RH  051%=      5-min Rain = 0
KUM1 140559Z 33014KT M03/M12 A3024 RMK A01 T10331120  RH  051%=      5-min Rain = 0

Page generated in 0.0812 seconds.